<?xml version="1.0" encoding="UTF-8" standalone="no" ?>
<gpx xmlns="http://www.topografix.com/GPX/1/1" xmlns:xsi="http://www.w3.org/2001/XMLSchema-instance" xsi:schemaLocation="http://www.topografix.com/GPX/1/1 http://www.topografix.com/GPX/1/1/gpx.xsd" version="1.1" creator="VisuGPX - https://www.visugpx.com">
  <metadata>
    <name>Vol de Louis  a Genos</name>
    <desc><![CDATA[petit vol a Genos ]]></desc>
  </metadata>
  <trk>
    <name><![CDATA[11100602]]></name>
    <trkseg>
      <trkpt lat="42.80778" lon="0.37731">
        <ele>1719.795</ele>
        <time>2011-10-06T11:33:50Z</time>
      </trkpt>
      <trkpt lat="42.80778" lon="0.37731">
        <ele>1719.551</ele>
        <time>2011-10-06T11:33:50Z</time>
      </trkpt>
      <trkpt lat="42.80769" lon="0.37776">
        <ele>1718.309</ele>
        <time>2011-10-06T11:33:54Z</time>
      </trkpt>
      <trkpt lat="42.80768" lon="0.37788">
        <ele>1717.076</ele>
        <time>2011-10-06T11:33:55Z</time>
      </trkpt>
      <trkpt lat="42.80768" lon="0.37798">
        <ele>1716.046</ele>
        <time>2011-10-06T11:33:56Z</time>
      </trkpt>
      <trkpt lat="42.8077" lon="0.37807">
        <ele>1714.712</ele>
        <time>2011-10-06T11:33:57Z</time>
      </trkpt>
      <trkpt lat="42.8077" lon="0.37817">
        <ele>1712.974</ele>
        <time>2011-10-06T11:33:58Z</time>
      </trkpt>
      <trkpt lat="42.8077" lon="0.37828">
        <ele>1711.681</ele>
        <time>2011-10-06T11:33:59Z</time>
      </trkpt>
      <trkpt lat="42.8077" lon="0.3784">
        <ele>1710.886</ele>
        <time>2011-10-06T11:34:00Z</time>
      </trkpt>
      <trkpt lat="42.8077" lon="0.3785">
        <ele>1710.838</ele>
        <time>2011-10-06T11:34:01Z</time>
      </trkpt>
      <trkpt lat="42.80771" lon="0.37859">
        <ele>1710.984</ele>
        <time>2011-10-06T11:34:02Z</time>
      </trkpt>
      <trkpt lat="42.80771" lon="0.37859">
        <ele>1710.899</ele>
        <time>2011-10-06T11:34:02Z</time>
      </trkpt>
      <trkpt lat="42.80772" lon="0.37877">
        <ele>1710.377</ele>
        <time>2011-10-06T11:34:04Z</time>
      </trkpt>
      <trkpt lat="42.80772" lon="0.37886">
        <ele>1709.737</ele>
        <time>2011-10-06T11:34:05Z</time>
      </trkpt>
      <trkpt lat="42.80771" lon="0.37895">
        <ele>1709.08</ele>
        <time>2011-10-06T11:34:06Z</time>
      </trkpt>
      <trkpt lat="42.80771" lon="0.37903">
        <ele>1708.25</ele>
        <time>2011-10-06T11:34:07Z</time>
      </trkpt>
      <trkpt lat="42.80771" lon="0.37912">
        <ele>1706.777</ele>
        <time>2011-10-06T11:34:08Z</time>
      </trkpt>
      <trkpt lat="42.80772" lon="0.37922">
        <ele>1705.156</ele>
        <time>2011-10-06T11:34:09Z</time>
      </trkpt>
      <trkpt lat="42.80772" lon="0.37932">
        <ele>1703.516</ele>
        <time>2011-10-06T11:34:10Z</time>
      </trkpt>
      <trkpt lat="42.80772" lon="0.37941">
        <ele>1702.185</ele>
        <time>2011-10-06T11:34:11Z</time>
      </trkpt>
      <trkpt lat="42.80772" lon="0.37951">
        <ele>1701.227</ele>
        <time>2011-10-06T11:34:12Z</time>
      </trkpt>
      <trkpt lat="42.80773" lon="0.37961">
        <ele>1700.019</ele>
        <time>2011-10-06T11:34:13Z</time>
      </trkpt>
      <trkpt lat="42.80773" lon="0.37971">
        <ele>1698.507</ele>
        <time>2011-10-06T11:34:14Z</time>
      </trkpt>
      <trkpt lat="42.80774" lon="0.37981">
        <ele>1696.508</ele>
        <time>2011-10-06T11:34:15Z</time>
      </trkpt>
      <trkpt lat="42.80774" lon="0.37992">
        <ele>1694.636</ele>
        <time>2011-10-06T11:34:16Z</time>
      </trkpt>
      <trkpt lat="42.80773" lon="0.38012">
        <ele>1693.08</ele>
        <time>2011-10-06T11:34:18Z</time>
      </trkpt>
      <trkpt lat="42.80773" lon="0.38012">
        <ele>1691.433</ele>
        <time>2011-10-06T11:34:18Z</time>
      </trkpt>
      <trkpt lat="42.80774" lon="0.38033">
        <ele>1689.932</ele>
        <time>2011-10-06T11:34:20Z</time>
      </trkpt>
      <trkpt lat="42.80776" lon="0.38044">
        <ele>1689.107</ele>
        <time>2011-10-06T11:34:21Z</time>
      </trkpt>
      <trkpt lat="42.80778" lon="0.38054">
        <ele>1688.926</ele>
        <time>2011-10-06T11:34:22Z</time>
      </trkpt>
      <trkpt lat="42.80779" lon="0.38062">
        <ele>1688.888</ele>
        <time>2011-10-06T11:34:23Z</time>
      </trkpt>
      <trkpt lat="42.80779" lon="0.38062">
        <ele>1688.476</ele>
        <time>2011-10-06T11:34:23Z</time>
      </trkpt>
      <trkpt lat="42.80782" lon="0.38079">
        <ele>1687.645</ele>
        <time>2011-10-06T11:34:25Z</time>
      </trkpt>
      <trkpt lat="42.80784" lon="0.38088">
        <ele>1686.529</ele>
        <time>2011-10-06T11:34:26Z</time>
      </trkpt>
      <trkpt lat="42.80786" lon="0.38097">
        <ele>1685.344</ele>
        <time>2011-10-06T11:34:27Z</time>
      </trkpt>
      <trkpt lat="42.80787" lon="0.38106">
        <ele>1684.452</ele>
        <time>2011-10-06T11:34:28Z</time>
      </trkpt>
      <trkpt lat="42.80787" lon="0.38115">
        <ele>1683.519</ele>
        <time>2011-10-06T11:34:29Z</time>
      </trkpt>
      <trkpt lat="42.80787" lon="0.38124">
        <ele>1682.872</ele>
        <time>2011-10-06T11:34:30Z</time>
      </trkpt>
      <trkpt lat="42.80787" lon="0.38132">
        <ele>1681.848</ele>
        <time>2011-10-06T11:34:31Z</time>
      </trkpt>
      <trkpt lat="42.80789" lon="0.38142">
        <ele>1680.437</ele>
        <time>2011-10-06T11:34:32Z</time>
      </trkpt>
      <trkpt lat="42.8079" lon="0.38153">
        <ele>1679.289</ele>
        <time>2011-10-06T11:34:33Z</time>
      </trkpt>
      <trkpt lat="42.80791" lon="0.38162">
        <ele>1678.037</ele>
        <time>2011-10-06T11:34:34Z</time>
      </trkpt>
      <trkpt lat="42.80791" lon="0.38171">
        <ele>1676.483</ele>
        <time>2011-10-06T11:34:35Z</time>
      </trkpt>
      <trkpt lat="42.80792" lon="0.38181">
        <ele>1674.147</ele>
        <time>2011-10-06T11:34:36Z</time>
      </trkpt>
      <trkpt lat="42.80792" lon="0.38191">
        <ele>1671.671</ele>
        <time>2011-10-06T11:34:37Z</time>
      </trkpt>
      <trkpt lat="42.80793" lon="0.38203">
        <ele>1669.515</ele>
        <time>2011-10-06T11:34:38Z</time>
      </trkpt>
      <trkpt lat="42.80794" lon="0.38214">
        <ele>1667.972</ele>
        <time>2011-10-06T11:34:39Z</time>
      </trkpt>
      <trkpt lat="42.80795" lon="0.38224">
        <ele>1666.427</ele>
        <time>2011-10-06T11:34:40Z</time>
      </trkpt>
      <trkpt lat="42.80796" lon="0.38234">
        <ele>1664.393</ele>
        <time>2011-10-06T11:34:41Z</time>
      </trkpt>
      <trkpt lat="42.80796" lon="0.38245">
        <ele>1662.174</ele>
        <time>2011-10-06T11:34:42Z</time>
      </trkpt>
      <trkpt lat="42.80798" lon="0.38255">
        <ele>1660.115</ele>
        <time>2011-10-06T11:34:43Z</time>
      </trkpt>
      <trkpt lat="42.80799" lon="0.38266">
        <ele>1657.896</ele>
        <time>2011-10-06T11:34:44Z</time>
      </trkpt>
      <trkpt lat="42.80801" lon="0.38276">
        <ele>1656.004</ele>
        <time>2011-10-06T11:34:45Z</time>
      </trkpt>
      <trkpt lat="42.80803" lon="0.38287">
        <ele>1654.18</ele>
        <time>2011-10-06T11:34:46Z</time>
      </trkpt>
      <trkpt lat="42.80806" lon="0.38298">
        <ele>1652.531</ele>
        <time>2011-10-06T11:34:47Z</time>
      </trkpt>
      <trkpt lat="42.80808" lon="0.38308">
        <ele>1650.883</ele>
        <time>2011-10-06T11:34:48Z</time>
      </trkpt>
      <trkpt lat="42.80812" lon="0.38327">
        <ele>1649.745</ele>
        <time>2011-10-06T11:34:50Z</time>
      </trkpt>
      <trkpt lat="42.80815" lon="0.38337">
        <ele>1649.072</ele>
        <time>2011-10-06T11:34:51Z</time>
      </trkpt>
      <trkpt lat="42.80817" lon="0.38347">
        <ele>1648.782</ele>
        <time>2011-10-06T11:34:52Z</time>
      </trkpt>
      <trkpt lat="42.80819" lon="0.38357">
        <ele>1649.256</ele>
        <time>2011-10-06T11:34:53Z</time>
      </trkpt>
      <trkpt lat="42.80819" lon="0.38357">
        <ele>1650.126</ele>
        <time>2011-10-06T11:34:53Z</time>
      </trkpt>
      <trkpt lat="42.80823" lon="0.38374">
        <ele>1651.008</ele>
        <time>2011-10-06T11:34:55Z</time>
      </trkpt>
      <trkpt lat="42.80825" lon="0.38383">
        <ele>1651.223</ele>
        <time>2011-10-06T11:34:56Z</time>
      </trkpt>
      <trkpt lat="42.80827" lon="0.38391">
        <ele>1650.799</ele>
        <time>2011-10-06T11:34:57Z</time>
      </trkpt>
      <trkpt lat="42.80829" lon="0.38399">
        <ele>1650.429</ele>
        <time>2011-10-06T11:34:58Z</time>
      </trkpt>
      <trkpt lat="42.80832" lon="0.38407">
        <ele>1650.21</ele>
        <time>2011-10-06T11:34:59Z</time>
      </trkpt>
      <trkpt lat="42.80835" lon="0.38413">
        <ele>1650.452</ele>
        <time>2011-10-06T11:35:00Z</time>
      </trkpt>
      <trkpt lat="42.80839" lon="0.38419">
        <ele>1650.989</ele>
        <time>2011-10-06T11:35:01Z</time>
      </trkpt>
      <trkpt lat="42.80842" lon="0.38425">
        <ele>1651.594</ele>
        <time>2011-10-06T11:35:02Z</time>
      </trkpt>
      <trkpt lat="42.80844" lon="0.38431">
        <ele>1651.648</ele>
        <time>2011-10-06T11:35:03Z</time>
      </trkpt>
      <trkpt lat="42.80847" lon="0.38439">
        <ele>1650.955</ele>
        <time>2011-10-06T11:35:04Z</time>
      </trkpt>
      <trkpt lat="42.8085" lon="0.38449">
        <ele>1649.999</ele>
        <time>2011-10-06T11:35:05Z</time>
      </trkpt>
      <trkpt lat="42.80852" lon="0.38459">
        <ele>1649.27</ele>
        <time>2011-10-06T11:35:06Z</time>
      </trkpt>
      <trkpt lat="42.80853" lon="0.38468">
        <ele>1648.417</ele>
        <time>2011-10-06T11:35:07Z</time>
      </trkpt>
      <trkpt lat="42.80854" lon="0.38477">
        <ele>1646.972</ele>
        <time>2011-10-06T11:35:08Z</time>
      </trkpt>
      <trkpt lat="42.80858" lon="0.38486">
        <ele>1645.008</ele>
        <time>2011-10-06T11:35:09Z</time>
      </trkpt>
      <trkpt lat="42.80862" lon="0.38496">
        <ele>1643.191</ele>
        <time>2011-10-06T11:35:10Z</time>
      </trkpt>
      <trkpt lat="42.80864" lon="0.38505">
        <ele>1641.941</ele>
        <time>2011-10-06T11:35:11Z</time>
      </trkpt>
      <trkpt lat="42.80866" lon="0.38514">
        <ele>1641.011</ele>
        <time>2011-10-06T11:35:12Z</time>
      </trkpt>
      <trkpt lat="42.80869" lon="0.38523">
        <ele>1640.429</ele>
        <time>2011-10-06T11:35:13Z</time>
      </trkpt>
      <trkpt lat="42.80872" lon="0.3853">
        <ele>1639.943</ele>
        <time>2011-10-06T11:35:14Z</time>
      </trkpt>
      <trkpt lat="42.80875" lon="0.38538">
        <ele>1639.889</ele>
        <time>2011-10-06T11:35:15Z</time>
      </trkpt>
      <trkpt lat="42.80878" lon="0.38546">
        <ele>1640.133</ele>
        <time>2011-10-06T11:35:16Z</time>
      </trkpt>
      <trkpt lat="42.80882" lon="0.38555">
        <ele>1640.37</ele>
        <time>2011-10-06T11:35:17Z</time>
      </trkpt>
      <trkpt lat="42.80883" lon="0.38563">
        <ele>1640.672</ele>
        <time>2011-10-06T11:35:18Z</time>
      </trkpt>
      <trkpt lat="42.8089" lon="0.3858">
        <ele>1640.883</ele>
        <time>2011-10-06T11:35:20Z</time>
      </trkpt>
      <trkpt lat="42.80897" lon="0.38587">
        <ele>1640.534</ele>
        <time>2011-10-06T11:35:21Z</time>
      </trkpt>
      <trkpt lat="42.809" lon="0.38595">
        <ele>1639.479</ele>
        <time>2011-10-06T11:35:22Z</time>
      </trkpt>
      <trkpt lat="42.80903" lon="0.38604">
        <ele>1637.807</ele>
        <time>2011-10-06T11:35:23Z</time>
      </trkpt>
      <trkpt lat="42.80903" lon="0.38604">
        <ele>1635.957</ele>
        <time>2011-10-06T11:35:23Z</time>
      </trkpt>
      <trkpt lat="42.80911" lon="0.38623">
        <ele>1634.846</ele>
        <time>2011-10-06T11:35:25Z</time>
      </trkpt>
      <trkpt lat="42.80915" lon="0.38631">
        <ele>1633.312</ele>
        <time>2011-10-06T11:35:26Z</time>
      </trkpt>
      <trkpt lat="42.80919" lon="0.38639">
        <ele>1631.819</ele>
        <time>2011-10-06T11:35:27Z</time>
      </trkpt>
      <trkpt lat="42.80921" lon="0.38647">
        <ele>1629.913</ele>
        <time>2011-10-06T11:35:28Z</time>
      </trkpt>
      <trkpt lat="42.80922" lon="0.38657">
        <ele>1627.673</ele>
        <time>2011-10-06T11:35:29Z</time>
      </trkpt>
      <trkpt lat="42.80924" lon="0.38667">
        <ele>1625.786</ele>
        <time>2011-10-06T11:35:30Z</time>
      </trkpt>
      <trkpt lat="42.80926" lon="0.38677">
        <ele>1624.293</ele>
        <time>2011-10-06T11:35:31Z</time>
      </trkpt>
      <trkpt lat="42.80928" lon="0.38686">
        <ele>1622.974</ele>
        <time>2011-10-06T11:35:32Z</time>
      </trkpt>
      <trkpt lat="42.8093" lon="0.38695">
        <ele>1621.707</ele>
        <time>2011-10-06T11:35:33Z</time>
      </trkpt>
      <trkpt lat="42.80933" lon="0.38704">
        <ele>1620.173</ele>
        <time>2011-10-06T11:35:34Z</time>
      </trkpt>
      <trkpt lat="42.80935" lon="0.38713">
        <ele>1618.892</ele>
        <time>2011-10-06T11:35:35Z</time>
      </trkpt>
      <trkpt lat="42.80939" lon="0.38723">
        <ele>1618.066</ele>
        <time>2011-10-06T11:35:36Z</time>
      </trkpt>
      <trkpt lat="42.80942" lon="0.38731">
        <ele>1617.702</ele>
        <time>2011-10-06T11:35:37Z</time>
      </trkpt>
      <trkpt lat="42.80947" lon="0.38739">
        <ele>1617.053</ele>
        <time>2011-10-06T11:35:38Z</time>
      </trkpt>
      <trkpt lat="42.8095" lon="0.38747">
        <ele>1615.638</ele>
        <time>2011-10-06T11:35:39Z</time>
      </trkpt>
      <trkpt lat="42.80952" lon="0.38755">
        <ele>1613.805</ele>
        <time>2011-10-06T11:35:40Z</time>
      </trkpt>
      <trkpt lat="42.80955" lon="0.38765">
        <ele>1612.126</ele>
        <time>2011-10-06T11:35:41Z</time>
      </trkpt>
      <trkpt lat="42.80957" lon="0.38775">
        <ele>1611.037</ele>
        <time>2011-10-06T11:35:42Z</time>
      </trkpt>
      <trkpt lat="42.80962" lon="0.38784">
        <ele>1611.256</ele>
        <time>2011-10-06T11:35:43Z</time>
      </trkpt>
      <trkpt lat="42.80963" lon="0.38791">
        <ele>1612.272</ele>
        <time>2011-10-06T11:35:44Z</time>
      </trkpt>
      <trkpt lat="42.80965" lon="0.38798">
        <ele>1613.466</ele>
        <time>2011-10-06T11:35:45Z</time>
      </trkpt>
      <trkpt lat="42.80966" lon="0.38804">
        <ele>1614.18</ele>
        <time>2011-10-06T11:35:46Z</time>
      </trkpt>
      <trkpt lat="42.80966" lon="0.38811">
        <ele>1614.371</ele>
        <time>2011-10-06T11:35:47Z</time>
      </trkpt>
      <trkpt lat="42.80966" lon="0.38818">
        <ele>1614.108</ele>
        <time>2011-10-06T11:35:48Z</time>
      </trkpt>
      <trkpt lat="42.80964" lon="0.38826">
        <ele>1613.353</ele>
        <time>2011-10-06T11:35:49Z</time>
      </trkpt>
      <trkpt lat="42.80959" lon="0.3884">
        <ele>1612.063</ele>
        <time>2011-10-06T11:35:51Z</time>
      </trkpt>
      <trkpt lat="42.80958" lon="0.38849">
        <ele>1610.5</ele>
        <time>2011-10-06T11:35:52Z</time>
      </trkpt>
      <trkpt lat="42.80957" lon="0.38858">
        <ele>1609.475</ele>
        <time>2011-10-06T11:35:53Z</time>
      </trkpt>
      <trkpt lat="42.80957" lon="0.38858">
        <ele>1608.24</ele>
        <time>2011-10-06T11:35:53Z</time>
      </trkpt>
      <trkpt lat="42.8096" lon="0.38877">
        <ele>1607.241</ele>
        <time>2011-10-06T11:35:55Z</time>
      </trkpt>
      <trkpt lat="42.80964" lon="0.38886">
        <ele>1606.004</ele>
        <time>2011-10-06T11:35:56Z</time>
      </trkpt>
      <trkpt lat="42.80969" lon="0.38896">
        <ele>1604.651</ele>
        <time>2011-10-06T11:35:57Z</time>
      </trkpt>
      <trkpt lat="42.80975" lon="0.38905">
        <ele>1604.133</ele>
        <time>2011-10-06T11:35:58Z</time>
      </trkpt>
      <trkpt lat="42.80977" lon="0.38912">
        <ele>1604.411</ele>
        <time>2011-10-06T11:35:59Z</time>
      </trkpt>
      <trkpt lat="42.80981" lon="0.38917">
        <ele>1604.511</ele>
        <time>2011-10-06T11:36:00Z</time>
      </trkpt>
      <trkpt lat="42.80984" lon="0.38924">
        <ele>1603.461</ele>
        <time>2011-10-06T11:36:01Z</time>
      </trkpt>
      <trkpt lat="42.80987" lon="0.38932">
        <ele>1601.319</ele>
        <time>2011-10-06T11:36:02Z</time>
      </trkpt>
      <trkpt lat="42.80993" lon="0.38941">
        <ele>1599.224</ele>
        <time>2011-10-06T11:36:03Z</time>
      </trkpt>
      <trkpt lat="42.80999" lon="0.38948">
        <ele>1598.067</ele>
        <time>2011-10-06T11:36:04Z</time>
      </trkpt>
      <trkpt lat="42.81006" lon="0.38954">
        <ele>1598.35</ele>
        <time>2011-10-06T11:36:05Z</time>
      </trkpt>
      <trkpt lat="42.81013" lon="0.38958">
        <ele>1599.403</ele>
        <time>2011-10-06T11:36:06Z</time>
      </trkpt>
      <trkpt lat="42.81018" lon="0.38962">
        <ele>1600.727</ele>
        <time>2011-10-06T11:36:07Z</time>
      </trkpt>
      <trkpt lat="42.81024" lon="0.38967">
        <ele>1601.524</ele>
        <time>2011-10-06T11:36:08Z</time>
      </trkpt>
      <trkpt lat="42.81028" lon="0.38972">
        <ele>1601.405</ele>
        <time>2011-10-06T11:36:09Z</time>
      </trkpt>
      <trkpt lat="42.81032" lon="0.38981">
        <ele>1600.529</ele>
        <time>2011-10-06T11:36:10Z</time>
      </trkpt>
      <trkpt lat="42.81035" lon="0.38992">
        <ele>1599.62</ele>
        <time>2011-10-06T11:36:11Z</time>
      </trkpt>
      <trkpt lat="42.81037" lon="0.39002">
        <ele>1599.17</ele>
        <time>2011-10-06T11:36:12Z</time>
      </trkpt>
      <trkpt lat="42.81039" lon="0.39011">
        <ele>1598.519</ele>
        <time>2011-10-06T11:36:13Z</time>
      </trkpt>
      <trkpt lat="42.81042" lon="0.39019">
        <ele>1597.432</ele>
        <time>2011-10-06T11:36:14Z</time>
      </trkpt>
      <trkpt lat="42.81047" lon="0.39027">
        <ele>1596.217</ele>
        <time>2011-10-06T11:36:15Z</time>
      </trkpt>
      <trkpt lat="42.81051" lon="0.39035">
        <ele>1595.657</ele>
        <time>2011-10-06T11:36:16Z</time>
      </trkpt>
      <trkpt lat="42.81057" lon="0.39051">
        <ele>1595.588</ele>
        <time>2011-10-06T11:36:18Z</time>
      </trkpt>
      <trkpt lat="42.81057" lon="0.39051">
        <ele>1595.346</ele>
        <time>2011-10-06T11:36:18Z</time>
      </trkpt>
      <trkpt lat="42.81068" lon="0.39065">
        <ele>1594.544</ele>
        <time>2011-10-06T11:36:20Z</time>
      </trkpt>
      <trkpt lat="42.81074" lon="0.39074">
        <ele>1592.942</ele>
        <time>2011-10-06T11:36:21Z</time>
      </trkpt>
      <trkpt lat="42.81078" lon="0.39083">
        <ele>1591.3</ele>
        <time>2011-10-06T11:36:22Z</time>
      </trkpt>
      <trkpt lat="42.81081" lon="0.39092">
        <ele>1590.075</ele>
        <time>2011-10-06T11:36:23Z</time>
      </trkpt>
      <trkpt lat="42.81084" lon="0.39101">
        <ele>1588.598</ele>
        <time>2011-10-06T11:36:24Z</time>
      </trkpt>
      <trkpt lat="42.81087" lon="0.39108">
        <ele>1586.155</ele>
        <time>2011-10-06T11:36:25Z</time>
      </trkpt>
      <trkpt lat="42.81091" lon="0.39117">
        <ele>1583.459</ele>
        <time>2011-10-06T11:36:26Z</time>
      </trkpt>
      <trkpt lat="42.81095" lon="0.39126">
        <ele>1580.484</ele>
        <time>2011-10-06T11:36:27Z</time>
      </trkpt>
      <trkpt lat="42.81099" lon="0.39135">
        <ele>1578.437</ele>
        <time>2011-10-06T11:36:28Z</time>
      </trkpt>
      <trkpt lat="42.81104" lon="0.39142">
        <ele>1577.416</ele>
        <time>2011-10-06T11:36:29Z</time>
      </trkpt>
      <trkpt lat="42.8111" lon="0.39148">
        <ele>1576.509</ele>
        <time>2011-10-06T11:36:30Z</time>
      </trkpt>
      <trkpt lat="42.81116" lon="0.39154">
        <ele>1575.2</ele>
        <time>2011-10-06T11:36:31Z</time>
      </trkpt>
      <trkpt lat="42.81121" lon="0.3916">
        <ele>1573.354</ele>
        <time>2011-10-06T11:36:32Z</time>
      </trkpt>
      <trkpt lat="42.81125" lon="0.39168">
        <ele>1571.344</ele>
        <time>2011-10-06T11:36:33Z</time>
      </trkpt>
      <trkpt lat="42.81128" lon="0.39176">
        <ele>1569.658</ele>
        <time>2011-10-06T11:36:34Z</time>
      </trkpt>
      <trkpt lat="42.81132" lon="0.39182">
        <ele>1568.373</ele>
        <time>2011-10-06T11:36:35Z</time>
      </trkpt>
      <trkpt lat="42.81136" lon="0.39188">
        <ele>1567.301</ele>
        <time>2011-10-06T11:36:36Z</time>
      </trkpt>
      <trkpt lat="42.8114" lon="0.39193">
        <ele>1566.323</ele>
        <time>2011-10-06T11:36:37Z</time>
      </trkpt>
      <trkpt lat="42.81144" lon="0.39197">
        <ele>1565.403</ele>
        <time>2011-10-06T11:36:38Z</time>
      </trkpt>
      <trkpt lat="42.81149" lon="0.39202">
        <ele>1564.725</ele>
        <time>2011-10-06T11:36:39Z</time>
      </trkpt>
      <trkpt lat="42.81154" lon="0.39206">
        <ele>1564.074</ele>
        <time>2011-10-06T11:36:40Z</time>
      </trkpt>
      <trkpt lat="42.81159" lon="0.39211">
        <ele>1562.915</ele>
        <time>2011-10-06T11:36:41Z</time>
      </trkpt>
      <trkpt lat="42.81163" lon="0.39217">
        <ele>1561.179</ele>
        <time>2011-10-06T11:36:42Z</time>
      </trkpt>
      <trkpt lat="42.81165" lon="0.39225">
        <ele>1558.968</ele>
        <time>2011-10-06T11:36:43Z</time>
      </trkpt>
      <trkpt lat="42.81167" lon="0.39232">
        <ele>1556.087</ele>
        <time>2011-10-06T11:36:44Z</time>
      </trkpt>
      <trkpt lat="42.81171" lon="0.39239">
        <ele>1553.352</ele>
        <time>2011-10-06T11:36:45Z</time>
      </trkpt>
      <trkpt lat="42.81177" lon="0.39246">
        <ele>1551.047</ele>
        <time>2011-10-06T11:36:46Z</time>
      </trkpt>
      <trkpt lat="42.81183" lon="0.39252">
        <ele>1549.971</ele>
        <time>2011-10-06T11:36:47Z</time>
      </trkpt>
      <trkpt lat="42.81191" lon="0.39258">
        <ele>1549.019</ele>
        <time>2011-10-06T11:36:48Z</time>
      </trkpt>
      <trkpt lat="42.81203" lon="0.39267">
        <ele>1548.111</ele>
        <time>2011-10-06T11:36:50Z</time>
      </trkpt>
      <trkpt lat="42.8121" lon="0.39271">
        <ele>1547.147</ele>
        <time>2011-10-06T11:36:51Z</time>
      </trkpt>
      <trkpt lat="42.81216" lon="0.39275">
        <ele>1546.23</ele>
        <time>2011-10-06T11:36:52Z</time>
      </trkpt>
      <trkpt lat="42.8122" lon="0.39281">
        <ele>1545.32</ele>
        <time>2011-10-06T11:36:53Z</time>
      </trkpt>
      <trkpt lat="42.8122" lon="0.39281">
        <ele>1544.599</ele>
        <time>2011-10-06T11:36:53Z</time>
      </trkpt>
      <trkpt lat="42.81228" lon="0.39293">
        <ele>1543.691</ele>
        <time>2011-10-06T11:36:55Z</time>
      </trkpt>
      <trkpt lat="42.81234" lon="0.39298">
        <ele>1542.687</ele>
        <time>2011-10-06T11:36:56Z</time>
      </trkpt>
      <trkpt lat="42.8124" lon="0.39303">
        <ele>1541.761</ele>
        <time>2011-10-06T11:36:57Z</time>
      </trkpt>
      <trkpt lat="42.81244" lon="0.39309">
        <ele>1541.34</ele>
        <time>2011-10-06T11:36:58Z</time>
      </trkpt>
      <trkpt lat="42.81244" lon="0.39309">
        <ele>1541.185</ele>
        <time>2011-10-06T11:36:58Z</time>
      </trkpt>
      <trkpt lat="42.81253" lon="0.39323">
        <ele>1540.813</ele>
        <time>2011-10-06T11:37:00Z</time>
      </trkpt>
      <trkpt lat="42.81259" lon="0.39328">
        <ele>1539.655</ele>
        <time>2011-10-06T11:37:01Z</time>
      </trkpt>
      <trkpt lat="42.81264" lon="0.39332">
        <ele>1537.839</ele>
        <time>2011-10-06T11:37:02Z</time>
      </trkpt>
      <trkpt lat="42.81269" lon="0.39337">
        <ele>1535.833</ele>
        <time>2011-10-06T11:37:03Z</time>
      </trkpt>
      <trkpt lat="42.81274" lon="0.39344">
        <ele>1534.149</ele>
        <time>2011-10-06T11:37:04Z</time>
      </trkpt>
      <trkpt lat="42.8128" lon="0.39349">
        <ele>1533.062</ele>
        <time>2011-10-06T11:37:05Z</time>
      </trkpt>
      <trkpt lat="42.81286" lon="0.39354">
        <ele>1532.049</ele>
        <time>2011-10-06T11:37:06Z</time>
      </trkpt>
      <trkpt lat="42.81292" lon="0.39357">
        <ele>1530.91</ele>
        <time>2011-10-06T11:37:07Z</time>
      </trkpt>
      <trkpt lat="42.81298" lon="0.39361">
        <ele>1529.619</ele>
        <time>2011-10-06T11:37:08Z</time>
      </trkpt>
      <trkpt lat="42.81303" lon="0.39366">
        <ele>1528.373</ele>
        <time>2011-10-06T11:37:09Z</time>
      </trkpt>
      <trkpt lat="42.81309" lon="0.3937">
        <ele>1527.931</ele>
        <time>2011-10-06T11:37:10Z</time>
      </trkpt>
      <trkpt lat="42.81314" lon="0.39373">
        <ele>1527.844</ele>
        <time>2011-10-06T11:37:11Z</time>
      </trkpt>
      <trkpt lat="42.81319" lon="0.39375">
        <ele>1527.547</ele>
        <time>2011-10-06T11:37:12Z</time>
      </trkpt>
      <trkpt lat="42.81325" lon="0.39379">
        <ele>1526.577</ele>
        <time>2011-10-06T11:37:13Z</time>
      </trkpt>
      <trkpt lat="42.81328" lon="0.39384">
        <ele>1525.675</ele>
        <time>2011-10-06T11:37:14Z</time>
      </trkpt>
      <trkpt lat="42.81332" lon="0.3939">
        <ele>1524.097</ele>
        <time>2011-10-06T11:37:15Z</time>
      </trkpt>
      <trkpt lat="42.81336" lon="0.39394">
        <ele>1521.963</ele>
        <time>2011-10-06T11:37:16Z</time>
      </trkpt>
      <trkpt lat="42.81343" lon="0.39396">
        <ele>1520.062</ele>
        <time>2011-10-06T11:37:17Z</time>
      </trkpt>
      <trkpt lat="42.81349" lon="0.39399">
        <ele>1517.933</ele>
        <time>2011-10-06T11:37:18Z</time>
      </trkpt>
      <trkpt lat="42.81357" lon="0.39402">
        <ele>1516.142</ele>
        <time>2011-10-06T11:37:19Z</time>
      </trkpt>
      <trkpt lat="42.81364" lon="0.39406">
        <ele>1514.604</ele>
        <time>2011-10-06T11:37:20Z</time>
      </trkpt>
      <trkpt lat="42.81371" lon="0.39408">
        <ele>1513.287</ele>
        <time>2011-10-06T11:37:21Z</time>
      </trkpt>
      <trkpt lat="42.81377" lon="0.39411">
        <ele>1512.516</ele>
        <time>2011-10-06T11:37:22Z</time>
      </trkpt>
      <trkpt lat="42.81383" lon="0.39413">
        <ele>1511.583</ele>
        <time>2011-10-06T11:37:23Z</time>
      </trkpt>
      <trkpt lat="42.81389" lon="0.39415">
        <ele>1510.286</ele>
        <time>2011-10-06T11:37:24Z</time>
      </trkpt>
      <trkpt lat="42.81394" lon="0.39418">
        <ele>1508.914</ele>
        <time>2011-10-06T11:37:25Z</time>
      </trkpt>
      <trkpt lat="42.814" lon="0.3942">
        <ele>1507.726</ele>
        <time>2011-10-06T11:37:26Z</time>
      </trkpt>
      <trkpt lat="42.81406" lon="0.39423">
        <ele>1506.841</ele>
        <time>2011-10-06T11:37:27Z</time>
      </trkpt>
      <trkpt lat="42.81413" lon="0.39425">
        <ele>1506.254</ele>
        <time>2011-10-06T11:37:28Z</time>
      </trkpt>
      <trkpt lat="42.81418" lon="0.39428">
        <ele>1505.684</ele>
        <time>2011-10-06T11:37:29Z</time>
      </trkpt>
      <trkpt lat="42.81429" lon="0.39436">
        <ele>1505.084</ele>
        <time>2011-10-06T11:37:31Z</time>
      </trkpt>
      <trkpt lat="42.81436" lon="0.3944">
        <ele>1504.294</ele>
        <time>2011-10-06T11:37:32Z</time>
      </trkpt>
      <trkpt lat="42.81444" lon="0.39443">
        <ele>1503.586</ele>
        <time>2011-10-06T11:37:33Z</time>
      </trkpt>
      <trkpt lat="42.81444" lon="0.39443">
        <ele>1503.092</ele>
        <time>2011-10-06T11:37:33Z</time>
      </trkpt>
      <trkpt lat="42.81457" lon="0.39446">
        <ele>1502.615</ele>
        <time>2011-10-06T11:37:35Z</time>
      </trkpt>
      <trkpt lat="42.81464" lon="0.39443">
        <ele>1502.204</ele>
        <time>2011-10-06T11:37:36Z</time>
      </trkpt>
      <trkpt lat="42.81471" lon="0.39439">
        <ele>1501.986</ele>
        <time>2011-10-06T11:37:37Z</time>
      </trkpt>
      <trkpt lat="42.81478" lon="0.39434">
        <ele>1502.196</ele>
        <time>2011-10-06T11:37:38Z</time>
      </trkpt>
      <trkpt lat="42.81478" lon="0.39434">
        <ele>1502.699</ele>
        <time>2011-10-06T11:37:38Z</time>
      </trkpt>
      <trkpt lat="42.81493" lon="0.39431">
        <ele>1503.056</ele>
        <time>2011-10-06T11:37:40Z</time>
      </trkpt>
      <trkpt lat="42.815" lon="0.39428">
        <ele>1502.558</ele>
        <time>2011-10-06T11:37:41Z</time>
      </trkpt>
      <trkpt lat="42.81505" lon="0.39427">
        <ele>1501.467</ele>
        <time>2011-10-06T11:37:42Z</time>
      </trkpt>
      <trkpt lat="42.81513" lon="0.39429">
        <ele>1499.192</ele>
        <time>2011-10-06T11:37:43Z</time>
      </trkpt>
      <trkpt lat="42.81519" lon="0.39436">
        <ele>1496.056</ele>
        <time>2011-10-06T11:37:44Z</time>
      </trkpt>
      <trkpt lat="42.81522" lon="0.39447">
        <ele>1493.625</ele>
        <time>2011-10-06T11:37:45Z</time>
      </trkpt>
      <trkpt lat="42.81524" lon="0.39459">
        <ele>1491.872</ele>
        <time>2011-10-06T11:37:46Z</time>
      </trkpt>
      <trkpt lat="42.81523" lon="0.3947">
        <ele>1491.172</ele>
        <time>2011-10-06T11:37:47Z</time>
      </trkpt>
      <trkpt lat="42.81519" lon="0.39479">
        <ele>1490.551</ele>
        <time>2011-10-06T11:37:48Z</time>
      </trkpt>
      <trkpt lat="42.81514" lon="0.39486">
        <ele>1489.256</ele>
        <time>2011-10-06T11:37:49Z</time>
      </trkpt>
      <trkpt lat="42.81506" lon="0.39491">
        <ele>1487.324</ele>
        <time>2011-10-06T11:37:50Z</time>
      </trkpt>
      <trkpt lat="42.81497" lon="0.39493">
        <ele>1484.884</ele>
        <time>2011-10-06T11:37:51Z</time>
      </trkpt>
      <trkpt lat="42.81489" lon="0.39492">
        <ele>1483.153</ele>
        <time>2011-10-06T11:37:52Z</time>
      </trkpt>
      <trkpt lat="42.8148" lon="0.39491">
        <ele>1482.135</ele>
        <time>2011-10-06T11:37:53Z</time>
      </trkpt>
      <trkpt lat="42.81471" lon="0.3949">
        <ele>1481.253</ele>
        <time>2011-10-06T11:37:54Z</time>
      </trkpt>
      <trkpt lat="42.81463" lon="0.39488">
        <ele>1479.813</ele>
        <time>2011-10-06T11:37:55Z</time>
      </trkpt>
      <trkpt lat="42.81455" lon="0.39486">
        <ele>1478.018</ele>
        <time>2011-10-06T11:37:56Z</time>
      </trkpt>
      <trkpt lat="42.81447" lon="0.39483">
        <ele>1476.358</ele>
        <time>2011-10-06T11:37:57Z</time>
      </trkpt>
      <trkpt lat="42.81438" lon="0.39482">
        <ele>1474.93</ele>
        <time>2011-10-06T11:37:58Z</time>
      </trkpt>
      <trkpt lat="42.8143" lon="0.39481">
        <ele>1473.993</ele>
        <time>2011-10-06T11:37:59Z</time>
      </trkpt>
      <trkpt lat="42.81422" lon="0.3948">
        <ele>1473.28</ele>
        <time>2011-10-06T11:38:00Z</time>
      </trkpt>
      <trkpt lat="42.81413" lon="0.39479">
        <ele>1472.715</ele>
        <time>2011-10-06T11:38:01Z</time>
      </trkpt>
      <trkpt lat="42.81403" lon="0.39478">
        <ele>1472.186</ele>
        <time>2011-10-06T11:38:02Z</time>
      </trkpt>
      <trkpt lat="42.81394" lon="0.39477">
        <ele>1471.479</ele>
        <time>2011-10-06T11:38:03Z</time>
      </trkpt>
      <trkpt lat="42.81384" lon="0.39476">
        <ele>1471.002</ele>
        <time>2011-10-06T11:38:04Z</time>
      </trkpt>
      <trkpt lat="42.81374" lon="0.39474">
        <ele>1471.046</ele>
        <time>2011-10-06T11:38:05Z</time>
      </trkpt>
      <trkpt lat="42.81364" lon="0.39471">
        <ele>1471.494</ele>
        <time>2011-10-06T11:38:06Z</time>
      </trkpt>
      <trkpt lat="42.81357" lon="0.39467">
        <ele>1471.412</ele>
        <time>2011-10-06T11:38:07Z</time>
      </trkpt>
      <trkpt lat="42.81357" lon="0.39467">
        <ele>1470.376</ele>
        <time>2011-10-06T11:38:07Z</time>
      </trkpt>
      <trkpt lat="42.81339" lon="0.39461">
        <ele>1468.294</ele>
        <time>2011-10-06T11:38:09Z</time>
      </trkpt>
      <trkpt lat="42.81317" lon="0.39453">
        <ele>1465.589</ele>
        <time>2011-10-06T11:38:11Z</time>
      </trkpt>
      <trkpt lat="42.81308" lon="0.39449">
        <ele>1464.722</ele>
        <time>2011-10-06T11:38:12Z</time>
      </trkpt>
      <trkpt lat="42.81301" lon="0.39447">
        <ele>1464.808</ele>
        <time>2011-10-06T11:38:13Z</time>
      </trkpt>
      <trkpt lat="42.81301" lon="0.39447">
        <ele>1464.583</ele>
        <time>2011-10-06T11:38:13Z</time>
      </trkpt>
      <trkpt lat="42.81284" lon="0.39445">
        <ele>1463.588</ele>
        <time>2011-10-06T11:38:15Z</time>
      </trkpt>
      <trkpt lat="42.81276" lon="0.39443">
        <ele>1461.691</ele>
        <time>2011-10-06T11:38:16Z</time>
      </trkpt>
      <trkpt lat="42.81266" lon="0.39441">
        <ele>1460.109</ele>
        <time>2011-10-06T11:38:17Z</time>
      </trkpt>
      <trkpt lat="42.81256" lon="0.3944">
        <ele>1459.386</ele>
        <time>2011-10-06T11:38:18Z</time>
      </trkpt>
      <trkpt lat="42.81248" lon="0.3944">
        <ele>1459.077</ele>
        <time>2011-10-06T11:38:19Z</time>
      </trkpt>
      <trkpt lat="42.8124" lon="0.3944">
        <ele>1458.291</ele>
        <time>2011-10-06T11:38:20Z</time>
      </trkpt>
      <trkpt lat="42.81231" lon="0.39437">
        <ele>1456.794</ele>
        <time>2011-10-06T11:38:21Z</time>
      </trkpt>
      <trkpt lat="42.81221" lon="0.39435">
        <ele>1455.051</ele>
        <time>2011-10-06T11:38:22Z</time>
      </trkpt>
      <trkpt lat="42.81211" lon="0.39434">
        <ele>1453.567</ele>
        <time>2011-10-06T11:38:23Z</time>
      </trkpt>
      <trkpt lat="42.81202" lon="0.39432">
        <ele>1452.251</ele>
        <time>2011-10-06T11:38:24Z</time>
      </trkpt>
      <trkpt lat="42.81193" lon="0.39428">
        <ele>1451.004</ele>
        <time>2011-10-06T11:38:25Z</time>
      </trkpt>
      <trkpt lat="42.81185" lon="0.39423">
        <ele>1449.802</ele>
        <time>2011-10-06T11:38:26Z</time>
      </trkpt>
      <trkpt lat="42.81177" lon="0.39418">
        <ele>1449.239</ele>
        <time>2011-10-06T11:38:27Z</time>
      </trkpt>
      <trkpt lat="42.81168" lon="0.39414">
        <ele>1448.894</ele>
        <time>2011-10-06T11:38:28Z</time>
      </trkpt>
      <trkpt lat="42.8116" lon="0.3941">
        <ele>1448.317</ele>
        <time>2011-10-06T11:38:29Z</time>
      </trkpt>
      <trkpt lat="42.81152" lon="0.39406">
        <ele>1447.281</ele>
        <time>2011-10-06T11:38:30Z</time>
      </trkpt>
      <trkpt lat="42.81143" lon="0.39403">
        <ele>1446.085</ele>
        <time>2011-10-06T11:38:31Z</time>
      </trkpt>
      <trkpt lat="42.81135" lon="0.39404">
        <ele>1444.573</ele>
        <time>2011-10-06T11:38:32Z</time>
      </trkpt>
      <trkpt lat="42.81127" lon="0.39409">
        <ele>1442.743</ele>
        <time>2011-10-06T11:38:33Z</time>
      </trkpt>
      <trkpt lat="42.81126" lon="0.3942">
        <ele>1440.535</ele>
        <time>2011-10-06T11:38:34Z</time>
      </trkpt>
      <trkpt lat="42.81127" lon="0.3943">
        <ele>1438.501</ele>
        <time>2011-10-06T11:38:35Z</time>
      </trkpt>
      <trkpt lat="42.81127" lon="0.3943">
        <ele>1437.145</ele>
        <time>2011-10-06T11:38:35Z</time>
      </trkpt>
      <trkpt lat="42.81133" lon="0.39447">
        <ele>1435.394</ele>
        <time>2011-10-06T11:38:37Z</time>
      </trkpt>
      <trkpt lat="42.81138" lon="0.39454">
        <ele>1433.595</ele>
        <time>2011-10-06T11:38:38Z</time>
      </trkpt>
      <trkpt lat="42.81144" lon="0.39458">
        <ele>1431.609</ele>
        <time>2011-10-06T11:38:39Z</time>
      </trkpt>
      <trkpt lat="42.81157" lon="0.39461">
        <ele>1430.001</ele>
        <time>2011-10-06T11:38:41Z</time>
      </trkpt>
      <trkpt lat="42.81162" lon="0.39463">
        <ele>1428.55</ele>
        <time>2011-10-06T11:38:42Z</time>
      </trkpt>
      <trkpt lat="42.81167" lon="0.39468">
        <ele>1427.215</ele>
        <time>2011-10-06T11:38:43Z</time>
      </trkpt>
      <trkpt lat="42.81167" lon="0.39468">
        <ele>1426.085</ele>
        <time>2011-10-06T11:38:43Z</time>
      </trkpt>
      <trkpt lat="42.81177" lon="0.3948">
        <ele>1425.297</ele>
        <time>2011-10-06T11:38:45Z</time>
      </trkpt>
      <trkpt lat="42.81183" lon="0.39483">
        <ele>1424.803</ele>
        <time>2011-10-06T11:38:46Z</time>
      </trkpt>
      <trkpt lat="42.81189" lon="0.39486">
        <ele>1424.551</ele>
        <time>2011-10-06T11:38:47Z</time>
      </trkpt>
      <trkpt lat="42.81195" lon="0.3949">
        <ele>1424.292</ele>
        <time>2011-10-06T11:38:48Z</time>
      </trkpt>
      <trkpt lat="42.81201" lon="0.39494">
        <ele>1423.791</ele>
        <time>2011-10-06T11:38:49Z</time>
      </trkpt>
      <trkpt lat="42.81206" lon="0.39499">
        <ele>1423.187</ele>
        <time>2011-10-06T11:38:50Z</time>
      </trkpt>
      <trkpt lat="42.81212" lon="0.39503">
        <ele>1422.49</ele>
        <time>2011-10-06T11:38:51Z</time>
      </trkpt>
      <trkpt lat="42.81219" lon="0.39506">
        <ele>1421.781</ele>
        <time>2011-10-06T11:38:52Z</time>
      </trkpt>
      <trkpt lat="42.81224" lon="0.3951">
        <ele>1420.772</ele>
        <time>2011-10-06T11:38:53Z</time>
      </trkpt>
      <trkpt lat="42.81229" lon="0.39515">
        <ele>1419.086</ele>
        <time>2011-10-06T11:38:54Z</time>
      </trkpt>
      <trkpt lat="42.81234" lon="0.39522">
        <ele>1417.278</ele>
        <time>2011-10-06T11:38:55Z</time>
      </trkpt>
      <trkpt lat="42.8124" lon="0.39528">
        <ele>1416.24</ele>
        <time>2011-10-06T11:38:56Z</time>
      </trkpt>
      <trkpt lat="42.81246" lon="0.39532">
        <ele>1415.985</ele>
        <time>2011-10-06T11:38:57Z</time>
      </trkpt>
      <trkpt lat="42.81252" lon="0.39536">
        <ele>1415.966</ele>
        <time>2011-10-06T11:38:58Z</time>
      </trkpt>
      <trkpt lat="42.81258" lon="0.3954">
        <ele>1415.505</ele>
        <time>2011-10-06T11:38:59Z</time>
      </trkpt>
      <trkpt lat="42.81263" lon="0.39543">
        <ele>1414.334</ele>
        <time>2011-10-06T11:39:00Z</time>
      </trkpt>
      <trkpt lat="42.81268" lon="0.39548">
        <ele>1412.774</ele>
        <time>2011-10-06T11:39:01Z</time>
      </trkpt>
      <trkpt lat="42.81274" lon="0.39553">
        <ele>1411.284</ele>
        <time>2011-10-06T11:39:02Z</time>
      </trkpt>
      <trkpt lat="42.81274" lon="0.39553">
        <ele>1410.467</ele>
        <time>2011-10-06T11:39:02Z</time>
      </trkpt>
      <trkpt lat="42.81285" lon="0.39564">
        <ele>1409.183</ele>
        <time>2011-10-06T11:39:04Z</time>
      </trkpt>
      <trkpt lat="42.81289" lon="0.39571">
        <ele>1408.028</ele>
        <time>2011-10-06T11:39:05Z</time>
      </trkpt>
      <trkpt lat="42.81293" lon="0.39578">
        <ele>1406.755</ele>
        <time>2011-10-06T11:39:06Z</time>
      </trkpt>
      <trkpt lat="42.81296" lon="0.39585">
        <ele>1405.003</ele>
        <time>2011-10-06T11:39:07Z</time>
      </trkpt>
      <trkpt lat="42.81299" lon="0.39592">
        <ele>1402.897</ele>
        <time>2011-10-06T11:39:08Z</time>
      </trkpt>
      <trkpt lat="42.81303" lon="0.39601">
        <ele>1400.426</ele>
        <time>2011-10-06T11:39:09Z</time>
      </trkpt>
      <trkpt lat="42.81307" lon="0.39609">
        <ele>1398.595</ele>
        <time>2011-10-06T11:39:10Z</time>
      </trkpt>
      <trkpt lat="42.81318" lon="0.39623">
        <ele>1397.399</ele>
        <time>2011-10-06T11:39:12Z</time>
      </trkpt>
      <trkpt lat="42.81323" lon="0.39628">
        <ele>1396.274</ele>
        <time>2011-10-06T11:39:13Z</time>
      </trkpt>
      <trkpt lat="42.81328" lon="0.39633">
        <ele>1394.873</ele>
        <time>2011-10-06T11:39:14Z</time>
      </trkpt>
      <trkpt lat="42.81333" lon="0.3964">
        <ele>1393.189</ele>
        <time>2011-10-06T11:39:15Z</time>
      </trkpt>
      <trkpt lat="42.81335" lon="0.39649">
        <ele>1391.47</ele>
        <time>2011-10-06T11:39:16Z</time>
      </trkpt>
      <trkpt lat="42.81337" lon="0.3966">
        <ele>1389.363</ele>
        <time>2011-10-06T11:39:17Z</time>
      </trkpt>
      <trkpt lat="42.81335" lon="0.39671">
        <ele>1387.488</ele>
        <time>2011-10-06T11:39:18Z</time>
      </trkpt>
      <trkpt lat="42.81331" lon="0.39681">
        <ele>1385.92</ele>
        <time>2011-10-06T11:39:19Z</time>
      </trkpt>
      <trkpt lat="42.81326" lon="0.3969">
        <ele>1384.645</ele>
        <time>2011-10-06T11:39:20Z</time>
      </trkpt>
      <trkpt lat="42.81321" lon="0.397">
        <ele>1383.506</ele>
        <time>2011-10-06T11:39:21Z</time>
      </trkpt>
      <trkpt lat="42.81316" lon="0.39709">
        <ele>1381.974</ele>
        <time>2011-10-06T11:39:22Z</time>
      </trkpt>
      <trkpt lat="42.81309" lon="0.39718">
        <ele>1380.177</ele>
        <time>2011-10-06T11:39:23Z</time>
      </trkpt>
      <trkpt lat="42.81302" lon="0.39727">
        <ele>1378.221</ele>
        <time>2011-10-06T11:39:24Z</time>
      </trkpt>
      <trkpt lat="42.81294" lon="0.39736">
        <ele>1376.552</ele>
        <time>2011-10-06T11:39:25Z</time>
      </trkpt>
      <trkpt lat="42.81287" lon="0.39745">
        <ele>1375.334</ele>
        <time>2011-10-06T11:39:26Z</time>
      </trkpt>
      <trkpt lat="42.81282" lon="0.39754">
        <ele>1374.208</ele>
        <time>2011-10-06T11:39:27Z</time>
      </trkpt>
      <trkpt lat="42.81277" lon="0.39764">
        <ele>1372.946</ele>
        <time>2011-10-06T11:39:28Z</time>
      </trkpt>
      <trkpt lat="42.81271" lon="0.39773">
        <ele>1371.51</ele>
        <time>2011-10-06T11:39:29Z</time>
      </trkpt>
      <trkpt lat="42.81265" lon="0.39782">
        <ele>1369.906</ele>
        <time>2011-10-06T11:39:30Z</time>
      </trkpt>
      <trkpt lat="42.81265" lon="0.39782">
        <ele>1368.881</ele>
        <time>2011-10-06T11:39:30Z</time>
      </trkpt>
      <trkpt lat="42.81252" lon="0.398">
        <ele>1367.46</ele>
        <time>2011-10-06T11:39:32Z</time>
      </trkpt>
      <trkpt lat="42.81246" lon="0.39809">
        <ele>1366.176</ele>
        <time>2011-10-06T11:39:33Z</time>
      </trkpt>
      <trkpt lat="42.8124" lon="0.39818">
        <ele>1364.827</ele>
        <time>2011-10-06T11:39:34Z</time>
      </trkpt>
      <trkpt lat="42.81234" lon="0.39827">
        <ele>1363.244</ele>
        <time>2011-10-06T11:39:35Z</time>
      </trkpt>
      <trkpt lat="42.81227" lon="0.39835">
        <ele>1361.533</ele>
        <time>2011-10-06T11:39:36Z</time>
      </trkpt>
      <trkpt lat="42.8122" lon="0.39844">
        <ele>1359.986</ele>
        <time>2011-10-06T11:39:37Z</time>
      </trkpt>
      <trkpt lat="42.81214" lon="0.39854">
        <ele>1358.859</ele>
        <time>2011-10-06T11:39:38Z</time>
      </trkpt>
      <trkpt lat="42.81208" lon="0.39863">
        <ele>1357.849</ele>
        <time>2011-10-06T11:39:39Z</time>
      </trkpt>
      <trkpt lat="42.81195" lon="0.3988">
        <ele>1356.733</ele>
        <time>2011-10-06T11:39:41Z</time>
      </trkpt>
      <trkpt lat="42.81188" lon="0.39888">
        <ele>1355.302</ele>
        <time>2011-10-06T11:39:42Z</time>
      </trkpt>
      <trkpt lat="42.81181" lon="0.39897">
        <ele>1353.703</ele>
        <time>2011-10-06T11:39:43Z</time>
      </trkpt>
      <trkpt lat="42.81181" lon="0.39897">
        <ele>1352.011</ele>
        <time>2011-10-06T11:39:43Z</time>
      </trkpt>
      <trkpt lat="42.81167" lon="0.39915">
        <ele>1350.681</ele>
        <time>2011-10-06T11:39:45Z</time>
      </trkpt>
      <trkpt lat="42.81161" lon="0.39923">
        <ele>1349.396</ele>
        <time>2011-10-06T11:39:46Z</time>
      </trkpt>
      <trkpt lat="42.81154" lon="0.39931">
        <ele>1348.364</ele>
        <time>2011-10-06T11:39:47Z</time>
      </trkpt>
      <trkpt lat="42.81146" lon="0.39938">
        <ele>1347.077</ele>
        <time>2011-10-06T11:39:48Z</time>
      </trkpt>
      <trkpt lat="42.81139" lon="0.39946">
        <ele>1345.781</ele>
        <time>2011-10-06T11:39:49Z</time>
      </trkpt>
      <trkpt lat="42.81132" lon="0.39954">
        <ele>1344.585</ele>
        <time>2011-10-06T11:39:50Z</time>
      </trkpt>
      <trkpt lat="42.81125" lon="0.39962">
        <ele>1343.504</ele>
        <time>2011-10-06T11:39:51Z</time>
      </trkpt>
      <trkpt lat="42.81118" lon="0.3997">
        <ele>1342.634</ele>
        <time>2011-10-06T11:39:52Z</time>
      </trkpt>
      <trkpt lat="42.81112" lon="0.39978">
        <ele>1341.843</ele>
        <time>2011-10-06T11:39:53Z</time>
      </trkpt>
      <trkpt lat="42.81106" lon="0.39986">
        <ele>1340.793</ele>
        <time>2011-10-06T11:39:54Z</time>
      </trkpt>
      <trkpt lat="42.811" lon="0.39995">
        <ele>1339.345</ele>
        <time>2011-10-06T11:39:55Z</time>
      </trkpt>
      <trkpt lat="42.81095" lon="0.40004">
        <ele>1337.752</ele>
        <time>2011-10-06T11:39:56Z</time>
      </trkpt>
      <trkpt lat="42.8109" lon="0.40015">
        <ele>1336.352</ele>
        <time>2011-10-06T11:39:57Z</time>
      </trkpt>
      <trkpt lat="42.81084" lon="0.40025">
        <ele>1335.384</ele>
        <time>2011-10-06T11:39:58Z</time>
      </trkpt>
      <trkpt lat="42.81079" lon="0.40034">
        <ele>1334.24</ele>
        <time>2011-10-06T11:39:59Z</time>
      </trkpt>
      <trkpt lat="42.81074" lon="0.40044">
        <ele>1333.129</ele>
        <time>2011-10-06T11:40:00Z</time>
      </trkpt>
      <trkpt lat="42.81069" lon="0.40053">
        <ele>1331.881</ele>
        <time>2011-10-06T11:40:01Z</time>
      </trkpt>
      <trkpt lat="42.81064" lon="0.40063">
        <ele>1330.589</ele>
        <time>2011-10-06T11:40:02Z</time>
      </trkpt>
      <trkpt lat="42.8106" lon="0.40073">
        <ele>1329.186</ele>
        <time>2011-10-06T11:40:03Z</time>
      </trkpt>
      <trkpt lat="42.81055" lon="0.40083">
        <ele>1327.73</ele>
        <time>2011-10-06T11:40:04Z</time>
      </trkpt>
      <trkpt lat="42.81051" lon="0.40093">
        <ele>1326.401</ele>
        <time>2011-10-06T11:40:05Z</time>
      </trkpt>
      <trkpt lat="42.81046" lon="0.40103">
        <ele>1325.207</ele>
        <time>2011-10-06T11:40:06Z</time>
      </trkpt>
      <trkpt lat="42.81042" lon="0.40113">
        <ele>1323.786</ele>
        <time>2011-10-06T11:40:07Z</time>
      </trkpt>
      <trkpt lat="42.81037" lon="0.40122">
        <ele>1322.443</ele>
        <time>2011-10-06T11:40:08Z</time>
      </trkpt>
      <trkpt lat="42.81033" lon="0.40132">
        <ele>1321.011</ele>
        <time>2011-10-06T11:40:09Z</time>
      </trkpt>
      <trkpt lat="42.81028" lon="0.40142">
        <ele>1319.655</ele>
        <time>2011-10-06T11:40:10Z</time>
      </trkpt>
      <trkpt lat="42.81023" lon="0.40152">
        <ele>1318.44</ele>
        <time>2011-10-06T11:40:11Z</time>
      </trkpt>
      <trkpt lat="42.81019" lon="0.40162">
        <ele>1317.087</ele>
        <time>2011-10-06T11:40:12Z</time>
      </trkpt>
      <trkpt lat="42.81015" lon="0.40171">
        <ele>1315.777</ele>
        <time>2011-10-06T11:40:13Z</time>
      </trkpt>
      <trkpt lat="42.81007" lon="0.40191">
        <ele>1314.393</ele>
        <time>2011-10-06T11:40:15Z</time>
      </trkpt>
      <trkpt lat="42.81002" lon="0.40201">
        <ele>1313.16</ele>
        <time>2011-10-06T11:40:16Z</time>
      </trkpt>
      <trkpt lat="42.80998" lon="0.40211">
        <ele>1311.846</ele>
        <time>2011-10-06T11:40:17Z</time>
      </trkpt>
      <trkpt lat="42.80993" lon="0.4022">
        <ele>1310.63</ele>
        <time>2011-10-06T11:40:18Z</time>
      </trkpt>
      <trkpt lat="42.80993" lon="0.4022">
        <ele>1309.386</ele>
        <time>2011-10-06T11:40:18Z</time>
      </trkpt>
      <trkpt lat="42.80983" lon="0.40239">
        <ele>1307.853</ele>
        <time>2011-10-06T11:40:20Z</time>
      </trkpt>
      <trkpt lat="42.80978" lon="0.40249">
        <ele>1306.362</ele>
        <time>2011-10-06T11:40:21Z</time>
      </trkpt>
      <trkpt lat="42.80973" lon="0.40259">
        <ele>1304.904</ele>
        <time>2011-10-06T11:40:22Z</time>
      </trkpt>
      <trkpt lat="42.80968" lon="0.40269">
        <ele>1303.639</ele>
        <time>2011-10-06T11:40:23Z</time>
      </trkpt>
      <trkpt lat="42.80963" lon="0.40279">
        <ele>1302.21</ele>
        <time>2011-10-06T11:40:24Z</time>
      </trkpt>
      <trkpt lat="42.80958" lon="0.40288">
        <ele>1300.845</ele>
        <time>2011-10-06T11:40:25Z</time>
      </trkpt>
      <trkpt lat="42.80953" lon="0.40298">
        <ele>1299.85</ele>
        <time>2011-10-06T11:40:26Z</time>
      </trkpt>
      <trkpt lat="42.80948" lon="0.40308">
        <ele>1298.153</ele>
        <time>2011-10-06T11:40:27Z</time>
      </trkpt>
      <trkpt lat="42.80942" lon="0.40318">
        <ele>1296.528</ele>
        <time>2011-10-06T11:40:28Z</time>
      </trkpt>
      <trkpt lat="42.80937" lon="0.40328">
        <ele>1294.745</ele>
        <time>2011-10-06T11:40:29Z</time>
      </trkpt>
      <trkpt lat="42.80932" lon="0.40338">
        <ele>1293.13</ele>
        <time>2011-10-06T11:40:30Z</time>
      </trkpt>
      <trkpt lat="42.80926" lon="0.40348">
        <ele>1291.672</ele>
        <time>2011-10-06T11:40:31Z</time>
      </trkpt>
      <trkpt lat="42.80921" lon="0.40358">
        <ele>1290.056</ele>
        <time>2011-10-06T11:40:32Z</time>
      </trkpt>
      <trkpt lat="42.80916" lon="0.40368">
        <ele>1288.571</ele>
        <time>2011-10-06T11:40:33Z</time>
      </trkpt>
      <trkpt lat="42.8091" lon="0.40378">
        <ele>1287.342</ele>
        <time>2011-10-06T11:40:34Z</time>
      </trkpt>
      <trkpt lat="42.80905" lon="0.40388">
        <ele>1286.143</ele>
        <time>2011-10-06T11:40:35Z</time>
      </trkpt>
      <trkpt lat="42.80899" lon="0.40398">
        <ele>1284.944</ele>
        <time>2011-10-06T11:40:36Z</time>
      </trkpt>
      <trkpt lat="42.80894" lon="0.40408">
        <ele>1283.568</ele>
        <time>2011-10-06T11:40:37Z</time>
      </trkpt>
      <trkpt lat="42.80889" lon="0.40418">
        <ele>1282.286</ele>
        <time>2011-10-06T11:40:38Z</time>
      </trkpt>
      <trkpt lat="42.80883" lon="0.40428">
        <ele>1281.065</ele>
        <time>2011-10-06T11:40:39Z</time>
      </trkpt>
      <trkpt lat="42.80878" lon="0.40438">
        <ele>1279.653</ele>
        <time>2011-10-06T11:40:40Z</time>
      </trkpt>
      <trkpt lat="42.80872" lon="0.40448">
        <ele>1278.348</ele>
        <time>2011-10-06T11:40:41Z</time>
      </trkpt>
      <trkpt lat="42.80867" lon="0.40458">
        <ele>1276.843</ele>
        <time>2011-10-06T11:40:42Z</time>
      </trkpt>
      <trkpt lat="42.80862" lon="0.40468">
        <ele>1275.459</ele>
        <time>2011-10-06T11:40:43Z</time>
      </trkpt>
      <trkpt lat="42.80857" lon="0.40478">
        <ele>1274.08</ele>
        <time>2011-10-06T11:40:44Z</time>
      </trkpt>
      <trkpt lat="42.80852" lon="0.40489">
        <ele>1272.874</ele>
        <time>2011-10-06T11:40:45Z</time>
      </trkpt>
      <trkpt lat="42.80847" lon="0.40498">
        <ele>1271.547</ele>
        <time>2011-10-06T11:40:46Z</time>
      </trkpt>
      <trkpt lat="42.80842" lon="0.40509">
        <ele>1270.264</ele>
        <time>2011-10-06T11:40:47Z</time>
      </trkpt>
      <trkpt lat="42.80837" lon="0.40519">
        <ele>1269.007</ele>
        <time>2011-10-06T11:40:48Z</time>
      </trkpt>
      <trkpt lat="42.80832" lon="0.40529">
        <ele>1267.627</ele>
        <time>2011-10-06T11:40:49Z</time>
      </trkpt>
      <trkpt lat="42.80826" lon="0.4054">
        <ele>1266.214</ele>
        <time>2011-10-06T11:40:50Z</time>
      </trkpt>
      <trkpt lat="42.80821" lon="0.4055">
        <ele>1264.945</ele>
        <time>2011-10-06T11:40:51Z</time>
      </trkpt>
      <trkpt lat="42.80811" lon="0.40571">
        <ele>1264.064</ele>
        <time>2011-10-06T11:40:53Z</time>
      </trkpt>
      <trkpt lat="42.80811" lon="0.40571">
        <ele>1262.81</ele>
        <time>2011-10-06T11:40:53Z</time>
      </trkpt>
      <trkpt lat="42.80801" lon="0.40592">
        <ele>1261.445</ele>
        <time>2011-10-06T11:40:55Z</time>
      </trkpt>
      <trkpt lat="42.80796" lon="0.40603">
        <ele>1259.92</ele>
        <time>2011-10-06T11:40:56Z</time>
      </trkpt>
      <trkpt lat="42.80791" lon="0.40613">
        <ele>1258.586</ele>
        <time>2011-10-06T11:40:57Z</time>
      </trkpt>
      <trkpt lat="42.80785" lon="0.40623">
        <ele>1257.306</ele>
        <time>2011-10-06T11:40:58Z</time>
      </trkpt>
      <trkpt lat="42.8078" lon="0.40634">
        <ele>1256.002</ele>
        <time>2011-10-06T11:40:59Z</time>
      </trkpt>
      <trkpt lat="42.80774" lon="0.40644">
        <ele>1254.711</ele>
        <time>2011-10-06T11:41:00Z</time>
      </trkpt>
      <trkpt lat="42.80769" lon="0.40655">
        <ele>1253.454</ele>
        <time>2011-10-06T11:41:01Z</time>
      </trkpt>
      <trkpt lat="42.80763" lon="0.40665">
        <ele>1252.053</ele>
        <time>2011-10-06T11:41:02Z</time>
      </trkpt>
      <trkpt lat="42.80758" lon="0.40676">
        <ele>1250.553</ele>
        <time>2011-10-06T11:41:03Z</time>
      </trkpt>
      <trkpt lat="42.80752" lon="0.40686">
        <ele>1249.305</ele>
        <time>2011-10-06T11:41:04Z</time>
      </trkpt>
      <trkpt lat="42.80746" lon="0.40697">
        <ele>1248.158</ele>
        <time>2011-10-06T11:41:05Z</time>
      </trkpt>
      <trkpt lat="42.8074" lon="0.40707">
        <ele>1247.016</ele>
        <time>2011-10-06T11:41:06Z</time>
      </trkpt>
      <trkpt lat="42.80735" lon="0.40717">
        <ele>1245.842</ele>
        <time>2011-10-06T11:41:07Z</time>
      </trkpt>
      <trkpt lat="42.80729" lon="0.40728">
        <ele>1244.394</ele>
        <time>2011-10-06T11:41:08Z</time>
      </trkpt>
      <trkpt lat="42.80724" lon="0.40739">
        <ele>1242.81</ele>
        <time>2011-10-06T11:41:09Z</time>
      </trkpt>
      <trkpt lat="42.80719" lon="0.40749">
        <ele>1241.407</ele>
        <time>2011-10-06T11:41:10Z</time>
      </trkpt>
      <trkpt lat="42.80713" lon="0.4076">
        <ele>1239.975</ele>
        <time>2011-10-06T11:41:11Z</time>
      </trkpt>
      <trkpt lat="42.80708" lon="0.4077">
        <ele>1238.687</ele>
        <time>2011-10-06T11:41:12Z</time>
      </trkpt>
      <trkpt lat="42.80703" lon="0.40781">
        <ele>1237.328</ele>
        <time>2011-10-06T11:41:13Z</time>
      </trkpt>
      <trkpt lat="42.80697" lon="0.40791">
        <ele>1235.967</ele>
        <time>2011-10-06T11:41:14Z</time>
      </trkpt>
      <trkpt lat="42.80697" lon="0.40791">
        <ele>1234.654</ele>
        <time>2011-10-06T11:41:14Z</time>
      </trkpt>
      <trkpt lat="42.80686" lon="0.40812">
        <ele>1233.385</ele>
        <time>2011-10-06T11:41:16Z</time>
      </trkpt>
      <trkpt lat="42.8068" lon="0.40822">
        <ele>1232.046</ele>
        <time>2011-10-06T11:41:17Z</time>
      </trkpt>
      <trkpt lat="42.80674" lon="0.40833">
        <ele>1230.697</ele>
        <time>2011-10-06T11:41:18Z</time>
      </trkpt>
      <trkpt lat="42.80668" lon="0.40843">
        <ele>1229.39</ele>
        <time>2011-10-06T11:41:19Z</time>
      </trkpt>
      <trkpt lat="42.80668" lon="0.40843">
        <ele>1228.471</ele>
        <time>2011-10-06T11:41:19Z</time>
      </trkpt>
      <trkpt lat="42.80655" lon="0.40862">
        <ele>1226.896</ele>
        <time>2011-10-06T11:41:21Z</time>
      </trkpt>
      <trkpt lat="42.80648" lon="0.40871">
        <ele>1225.361</ele>
        <time>2011-10-06T11:41:22Z</time>
      </trkpt>
      <trkpt lat="42.80639" lon="0.40879">
        <ele>1223.611</ele>
        <time>2011-10-06T11:41:23Z</time>
      </trkpt>
      <trkpt lat="42.8063" lon="0.40886">
        <ele>1222.154</ele>
        <time>2011-10-06T11:41:24Z</time>
      </trkpt>
      <trkpt lat="42.8062" lon="0.40892">
        <ele>1220.928</ele>
        <time>2011-10-06T11:41:25Z</time>
      </trkpt>
      <trkpt lat="42.8061" lon="0.40897">
        <ele>1219.819</ele>
        <time>2011-10-06T11:41:26Z</time>
      </trkpt>
      <trkpt lat="42.806" lon="0.40901">
        <ele>1218.545</ele>
        <time>2011-10-06T11:41:27Z</time>
      </trkpt>
      <trkpt lat="42.8059" lon="0.40905">
        <ele>1217.314</ele>
        <time>2011-10-06T11:41:28Z</time>
      </trkpt>
      <trkpt lat="42.8058" lon="0.40908">
        <ele>1216.013</ele>
        <time>2011-10-06T11:41:29Z</time>
      </trkpt>
      <trkpt lat="42.80558" lon="0.40913">
        <ele>1214.756</ele>
        <time>2011-10-06T11:41:31Z</time>
      </trkpt>
      <trkpt lat="42.80547" lon="0.40916">
        <ele>1213.612</ele>
        <time>2011-10-06T11:41:32Z</time>
      </trkpt>
      <trkpt lat="42.80537" lon="0.40919">
        <ele>1212.632</ele>
        <time>2011-10-06T11:41:33Z</time>
      </trkpt>
      <trkpt lat="42.80537" lon="0.40919">
        <ele>1211.709</ele>
        <time>2011-10-06T11:41:33Z</time>
      </trkpt>
      <trkpt lat="42.80516" lon="0.40923">
        <ele>1210.802</ele>
        <time>2011-10-06T11:41:35Z</time>
      </trkpt>
      <trkpt lat="42.80505" lon="0.40925">
        <ele>1209.72</ele>
        <time>2011-10-06T11:41:36Z</time>
      </trkpt>
      <trkpt lat="42.80494" lon="0.40927">
        <ele>1208.487</ele>
        <time>2011-10-06T11:41:37Z</time>
      </trkpt>
      <trkpt lat="42.80483" lon="0.40929">
        <ele>1207.352</ele>
        <time>2011-10-06T11:41:38Z</time>
      </trkpt>
      <trkpt lat="42.80473" lon="0.40931">
        <ele>1206.11</ele>
        <time>2011-10-06T11:41:39Z</time>
      </trkpt>
      <trkpt lat="42.80463" lon="0.40932">
        <ele>1204.713</ele>
        <time>2011-10-06T11:41:40Z</time>
      </trkpt>
      <trkpt lat="42.80452" lon="0.40934">
        <ele>1203.299</ele>
        <time>2011-10-06T11:41:41Z</time>
      </trkpt>
      <trkpt lat="42.80442" lon="0.40936">
        <ele>1201.78</ele>
        <time>2011-10-06T11:41:42Z</time>
      </trkpt>
      <trkpt lat="42.80431" lon="0.40938">
        <ele>1200.464</ele>
        <time>2011-10-06T11:41:43Z</time>
      </trkpt>
      <trkpt lat="42.80421" lon="0.4094">
        <ele>1199.211</ele>
        <time>2011-10-06T11:41:44Z</time>
      </trkpt>
      <trkpt lat="42.8041" lon="0.40942">
        <ele>1197.968</ele>
        <time>2011-10-06T11:41:45Z</time>
      </trkpt>
      <trkpt lat="42.804" lon="0.40944">
        <ele>1196.491</ele>
        <time>2011-10-06T11:41:46Z</time>
      </trkpt>
      <trkpt lat="42.8039" lon="0.40945">
        <ele>1195.398</ele>
        <time>2011-10-06T11:41:47Z</time>
      </trkpt>
      <trkpt lat="42.80379" lon="0.40947">
        <ele>1193.694</ele>
        <time>2011-10-06T11:41:48Z</time>
      </trkpt>
      <trkpt lat="42.80369" lon="0.40949">
        <ele>1192.159</ele>
        <time>2011-10-06T11:41:49Z</time>
      </trkpt>
      <trkpt lat="42.80358" lon="0.40951">
        <ele>1190.514</ele>
        <time>2011-10-06T11:41:50Z</time>
      </trkpt>
      <trkpt lat="42.80348" lon="0.40953">
        <ele>1189.208</ele>
        <time>2011-10-06T11:41:51Z</time>
      </trkpt>
      <trkpt lat="42.80337" lon="0.40955">
        <ele>1187.825</ele>
        <time>2011-10-06T11:41:52Z</time>
      </trkpt>
      <trkpt lat="42.80327" lon="0.40957">
        <ele>1186.596</ele>
        <time>2011-10-06T11:41:53Z</time>
      </trkpt>
      <trkpt lat="42.80317" lon="0.40959">
        <ele>1185.392</ele>
        <time>2011-10-06T11:41:54Z</time>
      </trkpt>
      <trkpt lat="42.80306" lon="0.40961">
        <ele>1184.205</ele>
        <time>2011-10-06T11:41:55Z</time>
      </trkpt>
      <trkpt lat="42.80296" lon="0.40963">
        <ele>1182.827</ele>
        <time>2011-10-06T11:41:56Z</time>
      </trkpt>
      <trkpt lat="42.80285" lon="0.40964">
        <ele>1181.42</ele>
        <time>2011-10-06T11:41:57Z</time>
      </trkpt>
      <trkpt lat="42.80275" lon="0.40966">
        <ele>1179.971</ele>
        <time>2011-10-06T11:41:58Z</time>
      </trkpt>
      <trkpt lat="42.80264" lon="0.40967">
        <ele>1178.739</ele>
        <time>2011-10-06T11:41:59Z</time>
      </trkpt>
      <trkpt lat="42.80253" lon="0.40969">
        <ele>1177.652</ele>
        <time>2011-10-06T11:42:00Z</time>
      </trkpt>
      <trkpt lat="42.80243" lon="0.40971">
        <ele>1176.602</ele>
        <time>2011-10-06T11:42:01Z</time>
      </trkpt>
      <trkpt lat="42.80233" lon="0.40973">
        <ele>1175.505</ele>
        <time>2011-10-06T11:42:02Z</time>
      </trkpt>
      <trkpt lat="42.80222" lon="0.40974">
        <ele>1174.301</ele>
        <time>2011-10-06T11:42:03Z</time>
      </trkpt>
      <trkpt lat="42.80212" lon="0.40976">
        <ele>1172.992</ele>
        <time>2011-10-06T11:42:04Z</time>
      </trkpt>
      <trkpt lat="42.80201" lon="0.40977">
        <ele>1171.859</ele>
        <time>2011-10-06T11:42:05Z</time>
      </trkpt>
      <trkpt lat="42.80191" lon="0.40979">
        <ele>1170.697</ele>
        <time>2011-10-06T11:42:06Z</time>
      </trkpt>
      <trkpt lat="42.80169" lon="0.40979">
        <ele>1169.733</ele>
        <time>2011-10-06T11:42:08Z</time>
      </trkpt>
      <trkpt lat="42.80169" lon="0.40979">
        <ele>1168.578</ele>
        <time>2011-10-06T11:42:08Z</time>
      </trkpt>
      <trkpt lat="42.80147" lon="0.40975">
        <ele>1167.534</ele>
        <time>2011-10-06T11:42:10Z</time>
      </trkpt>
      <trkpt lat="42.80137" lon="0.40972">
        <ele>1166.57</ele>
        <time>2011-10-06T11:42:11Z</time>
      </trkpt>
      <trkpt lat="42.80126" lon="0.40967">
        <ele>1165.383</ele>
        <time>2011-10-06T11:42:12Z</time>
      </trkpt>
      <trkpt lat="42.80116" lon="0.40962">
        <ele>1164.142</ele>
        <time>2011-10-06T11:42:13Z</time>
      </trkpt>
      <trkpt lat="42.80116" lon="0.40962">
        <ele>1162.434</ele>
        <time>2011-10-06T11:42:13Z</time>
      </trkpt>
      <trkpt lat="42.80096" lon="0.40947">
        <ele>1161.14</ele>
        <time>2011-10-06T11:42:15Z</time>
      </trkpt>
      <trkpt lat="42.80088" lon="0.40938">
        <ele>1158.959</ele>
        <time>2011-10-06T11:42:16Z</time>
      </trkpt>
      <trkpt lat="42.80081" lon="0.40928">
        <ele>1157.282</ele>
        <time>2011-10-06T11:42:17Z</time>
      </trkpt>
      <trkpt lat="42.80075" lon="0.40917">
        <ele>1156.049</ele>
        <time>2011-10-06T11:42:18Z</time>
      </trkpt>
      <trkpt lat="42.8007" lon="0.40906">
        <ele>1154.722</ele>
        <time>2011-10-06T11:42:19Z</time>
      </trkpt>
      <trkpt lat="42.80065" lon="0.40895">
        <ele>1153.171</ele>
        <time>2011-10-06T11:42:20Z</time>
      </trkpt>
      <trkpt lat="42.80062" lon="0.40883">
        <ele>1151.399</ele>
        <time>2011-10-06T11:42:21Z</time>
      </trkpt>
      <trkpt lat="42.80059" lon="0.40871">
        <ele>1149.508</ele>
        <time>2011-10-06T11:42:22Z</time>
      </trkpt>
      <trkpt lat="42.80057" lon="0.40859">
        <ele>1147.863</ele>
        <time>2011-10-06T11:42:23Z</time>
      </trkpt>
      <trkpt lat="42.80054" lon="0.40847">
        <ele>1146.317</ele>
        <time>2011-10-06T11:42:24Z</time>
      </trkpt>
      <trkpt lat="42.80052" lon="0.40836">
        <ele>1144.865</ele>
        <time>2011-10-06T11:42:25Z</time>
      </trkpt>
      <trkpt lat="42.80049" lon="0.40824">
        <ele>1143.627</ele>
        <time>2011-10-06T11:42:26Z</time>
      </trkpt>
      <trkpt lat="42.80047" lon="0.40813">
        <ele>1142.129</ele>
        <time>2011-10-06T11:42:27Z</time>
      </trkpt>
      <trkpt lat="42.80045" lon="0.40802">
        <ele>1140.57</ele>
        <time>2011-10-06T11:42:28Z</time>
      </trkpt>
      <trkpt lat="42.80042" lon="0.40791">
        <ele>1138.864</ele>
        <time>2011-10-06T11:42:29Z</time>
      </trkpt>
      <trkpt lat="42.8004" lon="0.40779">
        <ele>1137.07</ele>
        <time>2011-10-06T11:42:30Z</time>
      </trkpt>
      <trkpt lat="42.80037" lon="0.40767">
        <ele>1134.968</ele>
        <time>2011-10-06T11:42:31Z</time>
      </trkpt>
      <trkpt lat="42.80035" lon="0.40755">
        <ele>1133.237</ele>
        <time>2011-10-06T11:42:32Z</time>
      </trkpt>
      <trkpt lat="42.80032" lon="0.40743">
        <ele>1131.795</ele>
        <time>2011-10-06T11:42:33Z</time>
      </trkpt>
      <trkpt lat="42.8003" lon="0.40732">
        <ele>1130.647</ele>
        <time>2011-10-06T11:42:34Z</time>
      </trkpt>
      <trkpt lat="42.80025" lon="0.4071">
        <ele>1129.259</ele>
        <time>2011-10-06T11:42:36Z</time>
      </trkpt>
      <trkpt lat="42.80022" lon="0.40698">
        <ele>1127.743</ele>
        <time>2011-10-06T11:42:37Z</time>
      </trkpt>
      <trkpt lat="42.8002" lon="0.40687">
        <ele>1126.207</ele>
        <time>2011-10-06T11:42:38Z</time>
      </trkpt>
      <trkpt lat="42.8002" lon="0.40687">
        <ele>1124.583</ele>
        <time>2011-10-06T11:42:38Z</time>
      </trkpt>
      <trkpt lat="42.80016" lon="0.40664">
        <ele>1123.142</ele>
        <time>2011-10-06T11:42:40Z</time>
      </trkpt>
      <trkpt lat="42.80014" lon="0.40652">
        <ele>1121.82</ele>
        <time>2011-10-06T11:42:41Z</time>
      </trkpt>
      <trkpt lat="42.80011" lon="0.40641">
        <ele>1121.062</ele>
        <time>2011-10-06T11:42:42Z</time>
      </trkpt>
      <trkpt lat="42.80009" lon="0.4063">
        <ele>1119.931</ele>
        <time>2011-10-06T11:42:43Z</time>
      </trkpt>
      <trkpt lat="42.80007" lon="0.40619">
        <ele>1118.681</ele>
        <time>2011-10-06T11:42:44Z</time>
      </trkpt>
      <trkpt lat="42.80005" lon="0.4061">
        <ele>1117.376</ele>
        <time>2011-10-06T11:42:45Z</time>
      </trkpt>
      <trkpt lat="42.80004" lon="0.406">
        <ele>1115.963</ele>
        <time>2011-10-06T11:42:46Z</time>
      </trkpt>
      <trkpt lat="42.80002" lon="0.4059">
        <ele>1114.387</ele>
        <time>2011-10-06T11:42:47Z</time>
      </trkpt>
      <trkpt lat="42.79999" lon="0.4058">
        <ele>1112.917</ele>
        <time>2011-10-06T11:42:48Z</time>
      </trkpt>
      <trkpt lat="42.79998" lon="0.40569">
        <ele>1111.345</ele>
        <time>2011-10-06T11:42:49Z</time>
      </trkpt>
      <trkpt lat="42.79996" lon="0.40559">
        <ele>1109.821</ele>
        <time>2011-10-06T11:42:50Z</time>
      </trkpt>
      <trkpt lat="42.79994" lon="0.40549">
        <ele>1108.543</ele>
        <time>2011-10-06T11:42:51Z</time>
      </trkpt>
      <trkpt lat="42.79992" lon="0.40539">
        <ele>1107.286</ele>
        <time>2011-10-06T11:42:52Z</time>
      </trkpt>
      <trkpt lat="42.79991" lon="0.40528">
        <ele>1105.856</ele>
        <time>2011-10-06T11:42:53Z</time>
      </trkpt>
      <trkpt lat="42.79992" lon="0.40519">
        <ele>1104.094</ele>
        <time>2011-10-06T11:42:54Z</time>
      </trkpt>
      <trkpt lat="42.79997" lon="0.40512">
        <ele>1101.726</ele>
        <time>2011-10-06T11:42:55Z</time>
      </trkpt>
      <trkpt lat="42.80003" lon="0.4051">
        <ele>1098.817</ele>
        <time>2011-10-06T11:42:56Z</time>
      </trkpt>
      <trkpt lat="42.80009" lon="0.40512">
        <ele>1096.584</ele>
        <time>2011-10-06T11:42:57Z</time>
      </trkpt>
      <trkpt lat="42.80014" lon="0.40517">
        <ele>1095.324</ele>
        <time>2011-10-06T11:42:58Z</time>
      </trkpt>
      <trkpt lat="42.80017" lon="0.40524">
        <ele>1094.646</ele>
        <time>2011-10-06T11:42:59Z</time>
      </trkpt>
      <trkpt lat="42.80017" lon="0.40524">
        <ele>1093.925</ele>
        <time>2011-10-06T11:42:59Z</time>
      </trkpt>
      <trkpt lat="42.80028" lon="0.40545">
        <ele>1091.995</ele>
        <time>2011-10-06T11:43:02Z</time>
      </trkpt>
      <trkpt lat="42.80031" lon="0.40554">
        <ele>1089.77</ele>
        <time>2011-10-06T11:43:03Z</time>
      </trkpt>
      <trkpt lat="42.80031" lon="0.40554">
        <ele>1087.158</ele>
        <time>2011-10-06T11:43:03Z</time>
      </trkpt>
      <trkpt lat="42.80034" lon="0.40575">
        <ele>1085.129</ele>
        <time>2011-10-06T11:43:05Z</time>
      </trkpt>
      <trkpt lat="42.80036" lon="0.40585">
        <ele>1083.631</ele>
        <time>2011-10-06T11:43:06Z</time>
      </trkpt>
      <trkpt lat="42.80039" lon="0.40593">
        <ele>1082.425</ele>
        <time>2011-10-06T11:43:07Z</time>
      </trkpt>
      <trkpt lat="42.80041" lon="0.40602">
        <ele>1080.9</ele>
        <time>2011-10-06T11:43:08Z</time>
      </trkpt>
      <trkpt lat="42.80042" lon="0.40612">
        <ele>1079.373</ele>
        <time>2011-10-06T11:43:09Z</time>
      </trkpt>
      <trkpt lat="42.80042" lon="0.40622">
        <ele>1078.366</ele>
        <time>2011-10-06T11:43:10Z</time>
      </trkpt>
      <trkpt lat="42.80043" lon="0.40632">
        <ele>1076.983</ele>
        <time>2011-10-06T11:43:11Z</time>
      </trkpt>
      <trkpt lat="42.80044" lon="0.4064">
        <ele>1075.766</ele>
        <time>2011-10-06T11:43:12Z</time>
      </trkpt>
      <trkpt lat="42.80046" lon="0.40649">
        <ele>1074.354</ele>
        <time>2011-10-06T11:43:13Z</time>
      </trkpt>
      <trkpt lat="42.80048" lon="0.40658">
        <ele>1072.673</ele>
        <time>2011-10-06T11:43:14Z</time>
      </trkpt>
      <trkpt lat="42.80049" lon="0.40668">
        <ele>1070.928</ele>
        <time>2011-10-06T11:43:15Z</time>
      </trkpt>
      <trkpt lat="42.8005" lon="0.40677">
        <ele>1069.468</ele>
        <time>2011-10-06T11:43:16Z</time>
      </trkpt>
      <trkpt lat="42.80053" lon="0.40686">
        <ele>1067.98</ele>
        <time>2011-10-06T11:43:17Z</time>
      </trkpt>
      <trkpt lat="42.80055" lon="0.40694">
        <ele>1066.684</ele>
        <time>2011-10-06T11:43:18Z</time>
      </trkpt>
      <trkpt lat="42.80058" lon="0.407">
        <ele>1065.466</ele>
        <time>2011-10-06T11:43:19Z</time>
      </trkpt>
      <trkpt lat="42.80061" lon="0.40706">
        <ele>1064.071</ele>
        <time>2011-10-06T11:43:20Z</time>
      </trkpt>
      <trkpt lat="42.80065" lon="0.40711">
        <ele>1062.818</ele>
        <time>2011-10-06T11:43:21Z</time>
      </trkpt>
      <trkpt lat="42.80069" lon="0.40715">
        <ele>1061.482</ele>
        <time>2011-10-06T11:43:22Z</time>
      </trkpt>
      <trkpt lat="42.80073" lon="0.40717">
        <ele>1060.024</ele>
        <time>2011-10-06T11:43:23Z</time>
      </trkpt>
      <trkpt lat="42.80078" lon="0.40717">
        <ele>1058.248</ele>
        <time>2011-10-06T11:43:24Z</time>
      </trkpt>
      <trkpt lat="42.80083" lon="0.40715">
        <ele>1056.377</ele>
        <time>2011-10-06T11:43:25Z</time>
      </trkpt>
      <trkpt lat="42.80088" lon="0.40711">
        <ele>1054.795</ele>
        <time>2011-10-06T11:43:26Z</time>
      </trkpt>
      <trkpt lat="42.80091" lon="0.40706">
        <ele>1053.113</ele>
        <time>2011-10-06T11:43:27Z</time>
      </trkpt>
      <trkpt lat="42.80093" lon="0.40698">
        <ele>1051.355</ele>
        <time>2011-10-06T11:43:28Z</time>
      </trkpt>
      <trkpt lat="42.80094" lon="0.40689">
        <ele>1049.652</ele>
        <time>2011-10-06T11:43:29Z</time>
      </trkpt>
      <trkpt lat="42.80095" lon="0.40679">
        <ele>1047.749</ele>
        <time>2011-10-06T11:43:30Z</time>
      </trkpt>
      <trkpt lat="42.80094" lon="0.40668">
        <ele>1046.176</ele>
        <time>2011-10-06T11:43:31Z</time>
      </trkpt>
      <trkpt lat="42.80094" lon="0.40658">
        <ele>1044.575</ele>
        <time>2011-10-06T11:43:32Z</time>
      </trkpt>
      <trkpt lat="42.80093" lon="0.40647">
        <ele>1042.885</ele>
        <time>2011-10-06T11:43:33Z</time>
      </trkpt>
      <trkpt lat="42.80092" lon="0.40627">
        <ele>1041.128</ele>
        <time>2011-10-06T11:43:35Z</time>
      </trkpt>
      <trkpt lat="42.80092" lon="0.40618">
        <ele>1039.255</ele>
        <time>2011-10-06T11:43:36Z</time>
      </trkpt>
      <trkpt lat="42.80093" lon="0.40609">
        <ele>1038.01</ele>
        <time>2011-10-06T11:43:37Z</time>
      </trkpt>
      <trkpt lat="42.80094" lon="0.40599">
        <ele>1036.101</ele>
        <time>2011-10-06T11:43:38Z</time>
      </trkpt>
      <trkpt lat="42.80094" lon="0.40599">
        <ele>1034.074</ele>
        <time>2011-10-06T11:43:38Z</time>
      </trkpt>
      <trkpt lat="42.80099" lon="0.40583">
        <ele>1031.828</ele>
        <time>2011-10-06T11:43:40Z</time>
      </trkpt>
      <trkpt lat="42.80102" lon="0.40576">
        <ele>1029.9</ele>
        <time>2011-10-06T11:43:41Z</time>
      </trkpt>
      <trkpt lat="42.80107" lon="0.40569">
        <ele>1028.385</ele>
        <time>2011-10-06T11:43:42Z</time>
      </trkpt>
      <trkpt lat="42.80111" lon="0.40563">
        <ele>1027.083</ele>
        <time>2011-10-06T11:43:43Z</time>
      </trkpt>
      <trkpt lat="42.80116" lon="0.40558">
        <ele>1025.001</ele>
        <time>2011-10-06T11:43:44Z</time>
      </trkpt>
      <trkpt lat="42.80121" lon="0.40554">
        <ele>1022.959</ele>
        <time>2011-10-06T11:43:45Z</time>
      </trkpt>
      <trkpt lat="42.80127" lon="0.40552">
        <ele>1021.259</ele>
        <time>2011-10-06T11:43:46Z</time>
      </trkpt>
      <trkpt lat="42.80133" lon="0.4055">
        <ele>1019.907</ele>
        <time>2011-10-06T11:43:47Z</time>
      </trkpt>
      <trkpt lat="42.80139" lon="0.40548">
        <ele>1019.181</ele>
        <time>2011-10-06T11:43:48Z</time>
      </trkpt>
      <trkpt lat="42.80144" lon="0.40547">
        <ele>1018.427</ele>
        <time>2011-10-06T11:43:49Z</time>
      </trkpt>
      <trkpt lat="42.80144" lon="0.40547">
        <ele>1016.837</ele>
        <time>2011-10-06T11:43:49Z</time>
      </trkpt>
      <trkpt lat="42.80156" lon="0.40545">
        <ele>1014.943</ele>
        <time>2011-10-06T11:43:51Z</time>
      </trkpt>
      <trkpt lat="42.80161" lon="0.40543">
        <ele>1013.368</ele>
        <time>2011-10-06T11:43:52Z</time>
      </trkpt>
      <trkpt lat="42.80167" lon="0.40542">
        <ele>1012.181</ele>
        <time>2011-10-06T11:43:53Z</time>
      </trkpt>
      <trkpt lat="42.80173" lon="0.4054">
        <ele>1011.296</ele>
        <time>2011-10-06T11:43:54Z</time>
      </trkpt>
      <trkpt lat="42.80178" lon="0.40539">
        <ele>1010.345</ele>
        <time>2011-10-06T11:43:55Z</time>
      </trkpt>
      <trkpt lat="42.80183" lon="0.40538">
        <ele>1009.068</ele>
        <time>2011-10-06T11:43:56Z</time>
      </trkpt>
      <trkpt lat="42.80188" lon="0.40537">
        <ele>1007.429</ele>
        <time>2011-10-06T11:43:57Z</time>
      </trkpt>
      <trkpt lat="42.80194" lon="0.40536">
        <ele>1005.854</ele>
        <time>2011-10-06T11:43:58Z</time>
      </trkpt>
      <trkpt lat="42.80199" lon="0.40535">
        <ele>1004.48</ele>
        <time>2011-10-06T11:43:59Z</time>
      </trkpt>
      <trkpt lat="42.80205" lon="0.40534">
        <ele>1003.192</ele>
        <time>2011-10-06T11:44:00Z</time>
      </trkpt>
      <trkpt lat="42.8021" lon="0.40533">
        <ele>1001.862</ele>
        <time>2011-10-06T11:44:01Z</time>
      </trkpt>
      <trkpt lat="42.80215" lon="0.40532">
        <ele>1000.461</ele>
        <time>2011-10-06T11:44:02Z</time>
      </trkpt>
      <trkpt lat="42.80221" lon="0.40531">
        <ele>999.118</ele>
        <time>2011-10-06T11:44:03Z</time>
      </trkpt>
      <trkpt lat="42.80226" lon="0.40529">
        <ele>998.206</ele>
        <time>2011-10-06T11:44:04Z</time>
      </trkpt>
      <trkpt lat="42.80232" lon="0.40528">
        <ele>997.275</ele>
        <time>2011-10-06T11:44:05Z</time>
      </trkpt>
      <trkpt lat="42.80237" lon="0.40526">
        <ele>996.323</ele>
        <time>2011-10-06T11:44:06Z</time>
      </trkpt>
      <trkpt lat="42.80242" lon="0.40524">
        <ele>995.02</ele>
        <time>2011-10-06T11:44:07Z</time>
      </trkpt>
      <trkpt lat="42.80242" lon="0.40524">
        <ele>993.46</ele>
        <time>2011-10-06T11:44:07Z</time>
      </trkpt>
      <trkpt lat="42.80252" lon="0.4052">
        <ele>991.952</ele>
        <time>2011-10-06T11:44:09Z</time>
      </trkpt>
      <trkpt lat="42.80257" lon="0.40518">
        <ele>990.447</ele>
        <time>2011-10-06T11:44:10Z</time>
      </trkpt>
      <trkpt lat="42.80268" lon="0.40514">
        <ele>989.433</ele>
        <time>2011-10-06T11:44:12Z</time>
      </trkpt>
      <trkpt lat="42.80273" lon="0.40512">
        <ele>988.714</ele>
        <time>2011-10-06T11:44:13Z</time>
      </trkpt>
      <trkpt lat="42.80273" lon="0.40512">
        <ele>988.263</ele>
        <time>2011-10-06T11:44:13Z</time>
      </trkpt>
      <trkpt lat="42.80281" lon="0.40508">
        <ele>988.142</ele>
        <time>2011-10-06T11:44:15Z</time>
      </trkpt>
      <trkpt lat="42.80284" lon="0.40508">
        <ele>988.252</ele>
        <time>2011-10-06T11:44:16Z</time>
      </trkpt>
      <trkpt lat="42.80287" lon="0.40507">
        <ele>988.392</ele>
        <time>2011-10-06T11:44:17Z</time>
      </trkpt>
      <trkpt lat="42.80291" lon="0.40506">
        <ele>988.466</ele>
        <time>2011-10-06T11:44:18Z</time>
      </trkpt>
      <trkpt lat="42.80294" lon="0.40505">
        <ele>988.508</ele>
        <time>2011-10-06T11:44:19Z</time>
      </trkpt>
      <trkpt lat="42.80296" lon="0.40503">
        <ele>988.562</ele>
        <time>2011-10-06T11:44:20Z</time>
      </trkpt>
      <trkpt lat="42.80298" lon="0.405">
        <ele>988.573</ele>
        <time>2011-10-06T11:44:21Z</time>
      </trkpt>
      <trkpt lat="42.80301" lon="0.40497">
        <ele>988.53</ele>
        <time>2011-10-06T11:44:22Z</time>
      </trkpt>
      <trkpt lat="42.80304" lon="0.40493">
        <ele>988.462</ele>
        <time>2011-10-06T11:44:23Z</time>
      </trkpt>
      <trkpt lat="42.80305" lon="0.4049">
        <ele>988.386</ele>
        <time>2011-10-06T11:44:24Z</time>
      </trkpt>
      <trkpt lat="42.80306" lon="0.40488">
        <ele>988.322</ele>
        <time>2011-10-06T11:44:25Z</time>
      </trkpt>
      <trkpt lat="42.80308" lon="0.40486">
        <ele>988.273</ele>
        <time>2011-10-06T11:44:26Z</time>
      </trkpt>
      <trkpt lat="42.80307" lon="0.40485">
        <ele>988.367</ele>
        <time>2011-10-06T11:44:27Z</time>
      </trkpt>
      <trkpt lat="42.80305" lon="0.40485">
        <ele>988.471</ele>
        <time>2011-10-06T11:44:28Z</time>
      </trkpt>
      <trkpt lat="42.80304" lon="0.40485">
        <ele>988.53</ele>
        <time>2011-10-06T11:44:29Z</time>
      </trkpt>
      <trkpt lat="42.80303" lon="0.40486">
        <ele>988.573</ele>
        <time>2011-10-06T11:44:30Z</time>
      </trkpt>
      <trkpt lat="42.80303" lon="0.40485">
        <ele>988.598</ele>
        <time>2011-10-06T11:44:31Z</time>
      </trkpt>
      <trkpt lat="42.80303" lon="0.40486">
        <ele>988.625</ele>
        <time>2011-10-06T11:44:32Z</time>
      </trkpt>
      <trkpt lat="42.80303" lon="0.40486">
        <ele>988.603</ele>
        <time>2011-10-06T11:44:33Z</time>
      </trkpt>
      <trkpt lat="42.80303" lon="0.40486">
        <ele>988.562</ele>
        <time>2011-10-06T11:44:34Z</time>
      </trkpt>
      <trkpt lat="42.80303" lon="0.40486">
        <ele>988.527</ele>
        <time>2011-10-06T11:44:35Z</time>
      </trkpt>
      <trkpt lat="42.80304" lon="0.40486">
        <ele>988.488</ele>
        <time>2011-10-06T11:44:36Z</time>
      </trkpt>
      <trkpt lat="42.80304" lon="0.40486">
        <ele>988.485</ele>
        <time>2011-10-06T11:44:37Z</time>
      </trkpt>
      <trkpt lat="42.80304" lon="0.40486">
        <ele>988.447</ele>
        <time>2011-10-06T11:44:38Z</time>
      </trkpt>
      <trkpt lat="42.80304" lon="0.40486">
        <ele>988.395</ele>
        <time>2011-10-06T11:44:39Z</time>
      </trkpt>
      <trkpt lat="42.80305" lon="0.40486">
        <ele>988.359</ele>
        <time>2011-10-06T11:44:40Z</time>
      </trkpt>
      <trkpt lat="42.80305" lon="0.40486">
        <ele>988.346</ele>
        <time>2011-10-06T11:44:41Z</time>
      </trkpt>
      <trkpt lat="42.80305" lon="0.40486">
        <ele>988.389</ele>
        <time>2011-10-06T11:44:42Z</time>
      </trkpt>
      <trkpt lat="42.80305" lon="0.40487">
        <ele>988.473</ele>
        <time>2011-10-06T11:44:43Z</time>
      </trkpt>
      <trkpt lat="42.80306" lon="0.40486">
        <ele>988.501</ele>
        <time>2011-10-06T11:44:45Z</time>
      </trkpt>
      <trkpt lat="42.80306" lon="0.40486">
        <ele>988.518</ele>
        <time>2011-10-06T11:44:46Z</time>
      </trkpt>
      <trkpt lat="42.80307" lon="0.40486">
        <ele>988.546</ele>
        <time>2011-10-06T11:44:47Z</time>
      </trkpt>
      <trkpt lat="42.80307" lon="0.40486">
        <ele>988.564</ele>
        <time>2011-10-06T11:44:48Z</time>
      </trkpt>
      <trkpt lat="42.80307" lon="0.40486">
        <ele>988.58</ele>
        <time>2011-10-06T11:44:48Z</time>
      </trkpt>
      <trkpt lat="42.80307" lon="0.40486">
        <ele>988.564</ele>
        <time>2011-10-06T11:44:50Z</time>
      </trkpt>
      <trkpt lat="42.80307" lon="0.40486">
        <ele>988.554</ele>
        <time>2011-10-06T11:44:51Z</time>
      </trkpt>
      <trkpt lat="42.80307" lon="0.40486">
        <ele>988.514</ele>
        <time>2011-10-06T11:44:52Z</time>
      </trkpt>
      <trkpt lat="42.80307" lon="0.40486">
        <ele>988.5</ele>
        <time>2011-10-06T11:44:53Z</time>
      </trkpt>
      <trkpt lat="42.80307" lon="0.40486">
        <ele>988.51</ele>
        <time>2011-10-06T11:44:54Z</time>
      </trkpt>
      <trkpt lat="42.80307" lon="0.40486">
        <ele>988.514</ele>
        <time>2011-10-06T11:44:55Z</time>
      </trkpt>
      <trkpt lat="42.80307" lon="0.40486">
        <ele>988.522</ele>
        <time>2011-10-06T11:44:56Z</time>
      </trkpt>
      <trkpt lat="42.80307" lon="0.40486">
        <ele>988.527</ele>
        <time>2011-10-06T11:44:57Z</time>
      </trkpt>
      <trkpt lat="42.80307" lon="0.40485">
        <ele>988.524</ele>
        <time>2011-10-06T11:44:58Z</time>
      </trkpt>
      <trkpt lat="42.80307" lon="0.40485">
        <ele>988.517</ele>
        <time>2011-10-06T11:44:59Z</time>
      </trkpt>
      <trkpt lat="42.80307" lon="0.40485">
        <ele>988.551</ele>
        <time>2011-10-06T11:45:00Z</time>
      </trkpt>
      <trkpt lat="42.80307" lon="0.40485">
        <ele>988.559</ele>
        <time>2011-10-06T11:45:01Z</time>
      </trkpt>
    </trkseg>
  </trk>
</gpx>